Ship Status Report: callsign 000000

sailwx.info

Track history (hours):
 
Tides and Currents Weather Stations Pressure Air Temp Water Temp Dewpoint Dewpoint Depression Visibility Wind Speed Wind Dir Waves Ship Positions

Callsign 000000 (name unknown)

Last reported at 2015-May-23 04:33 UTC. Time now 2015-May-23 05:49 UTC.
Position N 31°20' E 121°33'.

Type: Fishing. MMSI: 200007452.

Date/timePositionNaut miles runAvg speedWind from/ knotsBaromVisibWave heightAir tempDewpointWater temp
2015-May-23 04:33N 31°20' E 121°33'49885455.3
2015-May-23 04:33N 39°04' E 117°49'49655775.8
2015-May-23 04:33N 31°21' E 121°27'66214712.5
2015-May-23 04:30N 22°53' E 113°31'98331321.2
2015-May-23 04:28N 37°44' E 121°33'3835162.4
2015-May-23 04:24N 31°21' E 121°32'68913702.8
2015-May-23 04:21N 22°10' E 113°48'10351310.0
2015-May-23 03:33N 39°04' E 117°50'49426567.8
2015-May-23 03:32N 31°23' E 121°30'3514.1
2015-May-23 03:32N 31°21' E 121°27'68712753.2
2015-May-23 03:28N 22°10' E 113°48'6972764.0
2015-May-23 03:13N 31°55' E 120°54'1113506.4
2015-May-23 03:13N 32°02' E 120°44'6991037.6
2015-May-23 02:33N 22°10' E 113°48'68866900.1
2015-May-23 02:32N 31°21' E 121°27'49581018.3
2015-May-23 02:32N 39°04' E 117°51'116.4
2015-May-23 02:30N 39°04' E 117°51'1 6.8
2015-May-23 02:21N 39°04' E 117°50'4452128.4
2015-May-23 02:09N 32°02' E 120°44'5593.5
2015-May-23 01:33N 31°21' E 121°27'49689198.3
2015-May-23 01:33N 39°04' E 117°50'49729329.5
2015-May-23 01:32N 31°21' E 121°31'49844777.9
2015-May-23 01:31N 39°04' E 117°48'258103015.9
2015-May-23 01:31N 37°27' E 122°52'102414925.1
2015-May-23 01:27N 22°17' E 113°50'68729438.4
2015-May-23 01:26N 32°04' E 120°31'4394585.6
2015-May-23 01:20N 39°04' E 117°50'448569.4
2015-May-23 00:33N 32°00' E 120°49'5160779.6
2015-May-23 00:33N 31°21' E 121°27'2621.9
2015-May-23 00:33N 31°22' E 121°30'370147875.7
2015-May-23 00:32N 37°25' E 122°53'34510337.7
2015-May-23 00:30N 31°55' E 120°54'4561014.2
2015-May-23 00:03N 39°05' E 117°46'261504.8
2015-May-22 23:32N 37°24' E 122°53'37015117.0
2015-May-22 23:31N 31°21' E 121°27'2890.3
2015-May-22 23:13N 30°59' E 121°09'3604319.1
2015-May-22 23:08N 36°45' E 123°09'334583.5
2015-May-22 22:33N 31°21' E 121°27'6597044.1
2015-May-22 22:28N 23°07' E 113°17'38717215.0
2015-May-22 22:26N 26°08' E 119°34'6976607.5
2015-May-22 22:20N 37°24' E 122°56'3423776.7
2015-May-22 22:14N 31°57' E 120°52'623407.0
2015-May-22 22:13N 30°58' E 121°14'4 5.7
2015-May-22 21:33N 30°58' E 121°18'39550738.8
2015-May-22 21:33N 37°24' E 122°57'37013882.7
2015-May-22 21:31N 31°21' E 121°27'6593646.4
2015-May-22 21:20N 23°06' E 113°18'9971263.8
2015-May-22 20:33N 37°24' E 123°06'372148686.3
2015-May-22 20:33N 31°21' E 121°27'378679654.8
2015-May-22 20:33N 37°38' E 122°03'378356.4
2015-May-22 19:29N 31°21' E 121°27'3734723.9
2015-May-22 19:24N 37°25' E 123°08'358416.5
2015-May-22 18:33N 31°40' E 121°13'328289.9
2015-May-22 18:33N 31°27' E 121°48'1810980.1
2015-May-22 18:32N 31°21' E 121°27'32937010.4
2015-May-22 18:32N 26°08' E 119°34'6628422.2
2015-May-22 18:27N 36°44' E 123°10'43171.2
2015-May-22 18:12N 37°26' E 123°06'1075349.3
2015-May-22 18:11N 38°46' E 121°35'432689.4
2015-May-22 17:33N 31°34' E 121°19'295212.6
2015-May-22 17:33N 31°19' E 121°48'18812.3
2015-May-22 17:32N 31°21' E 121°27'32529966.3
2015-May-22 17:31N 36°36' E 123°06'95711329.8
2015-May-22 17:26N 23°06' E 113°18'98318922.4
2015-May-22 17:23N 37°38' E 122°04'985322406.1
2015-May-22 17:23N 22°56' E 113°36'66214529.6
2015-May-22 17:20N 31°34' E 121°20'36410920.8
2015-May-22 17:18N 37°27' E 123°05'1041028.5
2015-May-22 17:12N 38°46' E 121°39'435675.7
2015-May-22 16:33N 31°31' E 121°24'10482.0
2015-May-22 16:32N 31°21' E 121°27'181015.0
2015-May-22 16:31N 31°15' E 121°47'241049.6
2015-May-22 16:30N 31°30' E 121°26'43611900.3
2015-May-22 16:28N 38°46' E 121°43'1026528.0
2015-May-22 16:27N 37°28' E 123°05'49868.2
2015-May-22 16:23N 36°40' E 123°18'3241125.4
2015-May-22 16:06N 31°31' E 121°22'1018.6
2015-May-22 15:33N 31°21' E 121°27'53781.4
2015-May-22 15:33N 31°26' E 121°30'37032446.8
2015-May-22 15:33N 37°27' E 123°04'36918197.4
2015-May-22 15:31N 31°27' E 121°29'5143.8
2015-May-22 15:29N 31°29' E 121°25'1 6.3
2015-May-22 15:20N 31°30' E 121°24'1012.2
2015-May-22 14:33N 31°24' E 121°32'5775.0
2015-May-22 14:33N 31°21' E 121°27'5486.2
2015-May-22 14:32N 31°25' E 121°31'894271.1
2015-May-22 14:31N 29°58' E 121°50'98278.4
2015-May-22 14:10N 31°32' E 121°20'100162.2
2015-May-22 13:33N 29°58' E 121°59'9123410.6
2015-May-22 13:32N 31°25' E 121°31'5279.7
2015-May-22 13:31N 31°21' E 121°27'33318451.9
2015-May-22 13:30N 36°44' E 123°10'3332580.5
2015-May-22 13:22N 31°21' E 121°27'6542369.2
2015-May-22 13:06N 23°04' E 113°29'6601184.2
2015-May-22 12:32N 31°25' E 121°31'9638483.3
2015-May-22 12:32N 29°55' E 122°08'946356.5
2015-May-22 12:31N 31°21' E 121°27'65426460.7
2015-May-22 12:30N 23°04' E 113°29'6545354.2
2015-May-22 12:23N 31°21' E 121°27'4 4.6
2015-May-22 11:33N 31°24' E 121°31'997145.4
2015-May-22 11:33N 29°49' E 122°05'981288.4
2015-May-22 11:28N 31°21' E 121°27'6545466.0
2015-May-22 11:21N 23°04' E 113°29'65430986.9
2015-May-22 11:20N 31°21' E 121°27'3342423.3
2015-May-22 11:11N 36°43' E 123°13'3443578.5
2015-May-22 11:06N 31°19' E 120°56'2751.2
2015-May-22 10:33N 31°21' E 121°27'7374.6
2015-May-22 10:32N 31°29' E 121°26'7226.1
2015-May-22 10:30N 31°21' E 121°27'1017705.5
2015-May-22 10:30N 29°45' E 121°59'1472685.0
2015-May-22 10:26N 31°59' E 120°50'34411249.8
2015-May-22 10:24N 37°38' E 121°60'38280960.2
2015-May-22 10:24N 31°19' E 120°58'44914311.0
2015-May-22 10:22N 38°47' E 121°40'4464924.5
2015-May-22 10:17N 31°21' E 121°27'6544957.9
2015-May-22 10:09N 23°04' E 113°29'6541102.4
2015-May-22 09:33N 31°21' E 121°27'5322.3
2015-May-22 09:32N 31°26' E 121°29'5155.9
2015-May-22 09:30N 31°21' E 121°27'0 2.4
2015-May-22 09:24N 31°21' E 121°27'446178340.2
2015-May-22 09:23N 38°47' E 121°31'102923757.3
2015-May-22 09:21N 23°04' E 113°29'9857094.7
2015-May-22 09:12N 39°05' E 117°45'2944689.8
2015-May-22 09:09N 36°43' E 123°12'4247239.6
2015-May-22 09:05N 29°43' E 121°55'102192.1
2015-May-22 08:33N 31°23' E 121°30'3462.3
2015-May-22 08:33N 31°21' E 121°27'0 0.3
2015-May-22 08:32N 31°21' E 121°27'49650975.2
2015-May-22 08:31N 39°04' E 117°50'59618494.8
2015-May-22 08:29N 29°43' E 121°55'42410115.7
2015-May-22 08:27N 36°43' E 123°12'3334389.5
2015-May-22 08:22N 31°21' E 121°27'6622741.2
2015-May-22 08:08N 22°54' E 113°28'406301.3
2015-May-22 08:07N 22°18' E 113°46'492022.4
2015-May-22 08:06N 23°04' E 113°29'6541211.3
2015-May-22 07:33N 31°21' E 121°27'65467311.9
2015-May-22 07:33N 23°04' E 113°29'657591401.0
2015-May-22 07:33N 31°49' E 120°54'405488.4
2015-May-22 07:32N 31°21' E 121°27'648233301.7
2015-May-22 07:32N 23°06' E 113°37'98288346.9
2015-May-22 07:31N 39°04' E 117°51'102838150.3
2015-May-22 07:30N 22°17' E 113°49'68126075.8
2015-May-22 07:28N 31°21' E 121°27'33392229.4
2015-May-22 07:28N 36°42' E 123°14'3345101.2
2015-May-22 07:24N 31°20' E 121°25'2 2.6
2015-May-22 06:33N 31°21' E 121°27'129.9
2015-May-22 06:30N 31°22' E 121°29'1630.9
2015-May-22 06:30N 31°21' E 121°27'65417847.9
2015-May-22 06:28N 23°04' E 113°29'96410426.6
2015-May-22 06:23N 36°45' E 123°14'29448154.7
2015-May-22 06:22N 39°05' E 117°46'4482699.5
2015-May-22 06:12N 32°01' E 120°46'33388.0
2015-May-22 06:07N 31°39' E 121°15'2035.1
2015-May-22 05:33N 31°21' E 121°27'50180427.2
2015-May-22 05:33N 31°60' E 120°49'501655.4
2015-May-22 05:31N 31°21' E 121°27'495.1
2015-May-22 05:28N 31°22' E 121°24'3356814.8
2015-May-22 05:26N 36°45' E 123°14'3245326.7
2015-May-22 05:22N 31°35' E 121°19'66013967.1
2015-May-22 05:19N 23°04' E 113°29'654842.2
2015-May-22 04:32N 31°21' E 121°27'0 0.0
2015-May-22 04:32N 31°21' E 121°27'111354.9
2015-May-22 04:32N 31°32' E 121°23'66052763.9
2015-May-22 04:31N 23°04' E 113°29'96311257.1
2015-May-22 04:26N 36°45' E 123°11'2929828.2
2015-May-22 04:24N 39°05' E 117°46'4924687.4
2015-May-22 04:18N 31°25' E 121°22'105614.2
2015-May-22 04:08N 29°45' E 122°00'5951038.2
2015-May-22 03:33N 39°04' E 117°51'49568550.6
2015-May-22 03:33N 31°21' E 121°27'853.3
2015-May-22 03:24N 31°29' E 121°27'3191385.7
2015-May-22 03:10N 36°46' E 122°18'9461536.9
2015-May-22 02:34N 23°03' E 113°21'66121815.7
2015-May-22 02:32N 31°21' E 121°27'0 0.0
2015-May-22 02:31N 31°21' E 121°27'6516.4
2015-May-22 02:30N 31°27' E 121°29'4919819.1
2015-May-22 02:27N 39°04' E 117°50'478531.6
2015-May-22 01:34N 31°38' E 121°21'692165983.2
2015-May-22 01:33N 22°17' E 113°48'68223826.3
2015-May-22 01:32N 31°21' E 121°27'0 0.0
2015-May-22 01:31N 31°21' E 121°27'4108.7
2015-May-22 01:30N 31°24' E 121°31'70196.9
2015-May-22 01:08N 31°57' E 120°18'1134887.6
2015-May-22 01:07N 31°15' E 122°21'4682.7
2015-May-22 00:33N 31°21' E 121°27'7115016.7
2015-May-22 00:33N 31°56' E 120°15'711668.6
2015-May-22 00:30N 31°21' E 121°27'749.9
2015-May-22 00:22N 31°17' E 121°34'7 8.9
2015-May-21 23:33N 31°21' E 121°27'0 0.0
2015-May-21 23:29N 31°21' E 121°27'9830.1
2015-May-21 23:28N 31°13' E 121°30'9 9.4
2015-May-21 22:33N 31°21' E 121°27'0 2.7
2015-May-21 22:32N 31°21' E 121°27'2756.6
2015-May-21 22:04N 30°58' E 121°13'2750.3
2015-May-21 21:33N 31°21' E 121°27'191427.9
2015-May-21 21:32N 31°02' E 121°29'191293.6
2015-May-21 21:31N 31°21' E 121°27'3743686.1
2015-May-21 21:25N 37°27' E 123°04'4554471.4
2015-May-21 21:19N 29°55' E 122°03'3732601.3
2015-May-21 21:10N 36°07' E 122°29'2924398.2
2015-May-21 21:06N 31°15' E 122°21'4684.8
2015-May-21 20:34N 31°21' E 121°27'018.2
2015-May-21 20:32N 31°22' E 121°28'884093.7
2015-May-21 20:31N 29°57' E 121°56'3711065.3
2015-May-21 20:10N 36°08' E 122°29'861134.1
2015-May-21 20:05N 37°27' E 123°12'375702.3
2015-May-21 19:33N 31°21' E 121°27'3764941.0
2015-May-21 19:29N 37°27' E 123°15'3731076.9
2015-May-21 19:08N 31°24' E 121°31'2893684.0
2015-May-21 19:03N 36°09' E 122°29'289569.3
2015-May-21 18:33N 31°24' E 121°31'3752038.1
2015-May-21 18:22N 37°30' E 123°13'3798794.6
2015-May-21 18:19N 31°21' E 121°27'83416.2
2015-May-21 18:07N 30°01' E 121°50'85145.2
2015-May-21 17:32N 31°24' E 121°31'4238.7
2015-May-21 17:31N 31°21' E 121°27'83228.0
2015-May-21 17:09N 30°01' E 121°50'85142.1
2015-May-21 16:33N 31°24' E 121°31'4829.3
2015-May-21 16:33N 31°21' E 121°27'6642772.1
2015-May-21 16:19N 22°48' E 113°36'50204.1
2015-May-21 16:04N 22°12' E 114°14'6231222.8
2015-May-21 15:33N 30°01' E 121°50'853442.0
2015-May-21 15:32N 31°24' E 121°31'4167.3
2015-May-21 15:31N 31°21' E 121°27'66838815.9
2015-May-21 15:29N 22°14' E 114°18'6584513.3
2015-May-21 15:21N 31°09' E 121°27'1315.9
2015-May-21 14:33N 31°21' E 121°27'527420.4
2015-May-21 14:32N 32°02' E 120°50'511884.7
2015-May-21 14:31N 31°24' E 121°31'43680.1
2015-May-21 14:27N 31°15' E 122°21'4550.9
2015-May-21 13:33N 31°26' E 121°29'51521.0
2015-May-21 13:33N 31°21' E 121°27'53919598.4
2015-May-21 13:32N 40°20' E 122°03'539526.5
2015-May-21 12:30N 31°21' E 121°27'93720.6
2015-May-21 12:30N 31°30' E 121°23'9 9.7
2015-May-21 11:33N 31°21' E 121°27'154425.6
2015-May-21 11:32N 31°34' E 121°18'366812.6
2015-May-21 11:05N 37°38' E 121°59'378712.1
2015-May-21 10:34N 31°21' E 121°27'68229229.9
2015-May-21 10:32N 22°18' E 113°45'68850566.5
2015-May-21 10:31N 31°39' E 121°13'2121.6
2015-May-21 09:33N 31°21' E 121°27'0 0.0
2015-May-21 08:33N 31°21' E 121°27'44509.8
2015-May-21 08:28N 31°56' E 121°60'4447.1
2015-May-21 07:31N 31°21' E 121°27'3384843.1
2015-May-21 07:27N 36°55' E 122°29'29475567.8
2015-May-21 07:27N 32°03' E 121°49'4549.5
2015-May-21 06:32N 31°22' E 121°28'84996.3
2015-May-21 06:27N 29°59' E 121°47'6313414.1
2015-May-21 06:16N 22°16' E 113°49'682903.8
2015-May-21 05:30N 31°22' E 121°28'381390.9
2015-May-21 04:32N 37°42' E 121°51'38168531.9
2015-May-21 04:32N 31°22' E 121°28'0 0.0
2015-May-21 03:34N 31°22' E 121°28'352177.9
2015-May-21 03:33N 31°47' E 120°59'68722066.5
2015-May-21 03:31N 22°16' E 113°49'682706.3
2015-May-21 02:33N 31°22' E 121°28'66321107.0
2015-May-21 02:31N 22°53' E 113°30'66610340.1
2015-May-21 02:27N 31°51' E 120°53'4244.4
2015-May-21 01:30N 31°22' E 121°30'68212661.3
2015-May-21 01:27N 22°18' E 113°49'48437.0
2015-May-21 01:20N 22°54' E 113°15'675847.9
2015-May-21 00:32N 31°25' E 121°31'53139.4
2015-May-21 00:09N 32°00' E 120°44'67111.3
2015-May-20 23:33N 30°57' E 121°11'4 3.8
2015-May-20 22:32N 30°60' E 121°08'303800.9
2015-May-20 22:09N 26°08' E 119°34'305497.1
2015-May-20 21:32N 31°02' E 121°04'3051626.4
2015-May-20 21:21N 26°08' E 119°34'0 0.0
2015-May-20 20:33N 26°08' E 119°34'7014065.0
2015-May-20 20:22N 37°37' E 122°05'91218557.3
2015-May-20 20:20N 23°07' E 116°45'237304.0
2015-May-20 19:33N 26°08' E 119°34'23059218.2
2015-May-20 19:33N 23°12' E 116°50'1842660.7
2015-May-20 19:28N 23°02' E 113°31'9824096.9
2015-May-20 19:14N 37°38' E 122°06'9821277.3
2015-May-20 18:28N 23°02' E 113°31'3793195.9
2015-May-20 18:21N 26°08' E 119°34'379422.1
2015-May-20 17:27N 23°02' E 113°31'3793728.5
2015-May-20 17:21N 26°08' E 119°34'379395.3
2015-May-20 16:23N 23°02' E 113°31'0 0.0
2015-May-20 15:32N 23°02' E 113°31'715.4
2015-May-20 15:04N 22°56' E 113°36'3 5.0
2015-May-20 14:32N 22°54' E 113°35'954.1
2015-May-20 14:22N 23°02' E 113°31'6588394.6
2015-May-20 14:18N 31°47' E 120°56'658800.6
2015-May-20 13:28N 23°02' E 113°31'98911640.1
2015-May-20 13:23N 37°36' E 122°28'396471.7
2015-May-20 12:33N 31°02' E 121°29'64210508.0
2015-May-20 12:29N 23°02' E 113°31'921.9
2015-May-20 12:06N 22°55' E 113°25'815.7
2015-May-20 11:33N 23°01' E 113°31'949262782.8
2015-May-20 11:33N 36°43' E 122°39'3355615.3
2015-May-20 11:29N 31°10' E 121°52'50239249.2
2015-May-20 11:29N 23°42' E 117°36'230249.9
2015-May-20 10:33N 22°55' E 113°30'91365.1
2015-May-20 10:33N 23°04' E 113°29'95030542.9
2015-May-20 10:31N 36°50' E 122°33'33416689.1
2015-May-20 10:30N 31°18' E 121°45'5007371.3
2015-May-20 10:26N 23°49' E 117°39'232167293.9
2015-May-20 10:26N 23°02' E 113°31'9823351.8
2015-May-20 10:08N 37°38' E 122°05'374644.9
2015-May-20 09:33N 31°25' E 121°48'32974129.5
2015-May-20 09:33N 36°53' E 122°29'817210176.1
2015-May-20 09:33N 23°53' E 117°45'23915653.5
2015-May-20 09:32N 23°04' E 113°30'97976632.9
2015-May-20 09:31N 37°38' E 122°01'97946381.5
2015-May-20 09:30N 23°04' E 113°29'3110.9
2015-May-20 09:28N 23°02' E 113°31'6292060.1
2015-May-20 09:10N 30°58' E 121°14'1422.7
2015-May-20 08:33N 31°03' E 121°29'641164912.6
2015-May-20 08:33N 23°04' E 113°30'1122192422.3
2015-May-20 08:33N 40°17' E 122°06'509107752.3
2015-May-20 08:32N 31°57' E 120°11'64115380.1
2015-May-20 08:30N 23°04' E 113°29'929.5
2015-May-20 08:11N 22°57' E 113°36'4572.6
2015-May-20 07:33N 22°13' E 113°48'1165465805.7
2015-May-20 07:33N 40°17' E 122°06'1122448985.4
2015-May-20 07:33N 23°04' E 113°30'64468239.9
2015-May-20 07:32N 31°58' E 120°17'64515069.4
2015-May-20 07:30N 23°04' E 113°29'256911.7
2015-May-20 07:13N 24°04' E 118°01'256383.7
2015-May-20 06:33N 23°04' E 113°30'01631.7
2015-May-20 06:33N 23°04' E 113°29'112373474.6
2015-May-20 06:32N 40°17' E 122°06'116795513.6
2015-May-20 06:31N 22°10' E 113°48'2656192.8
2015-May-20 06:29N 24°09' E 118°06'25445692.7
2015-May-20 06:28N 22°26' E 113°53'97383413.6
2015-May-20 06:28N 36°51' E 122°28'3674374.7
2015-May-20 06:23N 30°49' E 123°46'5775675.9
2015-May-20 06:17N 39°05' E 117°45'9851366.4
2015-May-20 05:33N 23°04' E 113°30'112291837.9
2015-May-20 05:33N 40°17' E 122°06'2047913.0
2015-May-20 05:31N 36°53' E 122°26'95048882.7
2015-May-20 05:30N 23°04' E 113°29'571711.2
2015-May-20 05:28N 22°10' E 113°48'103513452.6
2015-May-20 05:23N 39°04' E 117°51'89041096.9
2015-May-20 05:22N 24°14' E 118°13'172874.8
2015-May-20 05:22N 24°28' E 118°04'4655556.7
2015-May-20 05:17N 31°57' E 120°19'65414095.1
2015-May-20 05:14N 22°54' E 113°28'66986058.6
2015-May-20 05:13N 32°01' E 120°44'661990.8
2015-May-20 04:33N 23°04' E 113°30'950136854.1
2015-May-20 04:33N 36°53' E 122°26'9501140571.0
2015-May-20 04:33N 23°04' E 113°29'65535186.7
2015-May-20 04:32N 31°22' E 121°28'66191563.6
2015-May-20 04:31N 22°55' E 113°30'486677.5
2015-May-20 04:31N 22°10' E 113°48'6983416.5
2015-May-20 04:19N 31°20' E 121°48'4609692.2
2015-May-20 04:16N 24°18' E 118°20'88728754.6
2015-May-20 04:14N 39°04' E 117°46'9851456.6
2015-May-20 03:33N 23°04' E 113°30'9503421351.7
2015-May-20 03:33N 36°53' E 122°26'121303.9
2015-May-20 03:33N 36°45' E 122°36'32632606.1
2015-May-20 03:32N 31°24' E 121°31'513115403.4
2015-May-20 03:32N 23°36' E 117°33'22512071.2
2015-May-20 03:31N 22°10' E 113°48'573602.5
2015-May-20 03:30N 23°04' E 113°29'334.3
2015-May-20 03:25N 23°02' E 113°31'2825000.8
2015-May-20 03:22N 24°22' E 118°26'4516620.1
2015-May-20 03:18N 31°16' E 121°46'692939.3
2015-May-20 02:34N 22°12' E 113°48'5415092.3
2015-May-20 02:33N 23°04' E 113°30'0 8.3
2015-May-20 02:33N 23°04' E 113°30'950244393.9
2015-May-20 02:33N 36°52' E 122°28'34317877.3
2015-May-20 02:32N 31°11' E 121°51'34451525.0
2015-May-20 02:31N 36°53' E 122°26'77513224.4
2015-May-20 02:28N 24°25' E 118°31'288317.7
2015-May-20 01:33N 23°04' E 113°30'950190075.1
2015-May-20 01:33N 36°53' E 122°26'9848641.5
2015-May-20 01:26N 22°18' E 113°48'99930232.6
2015-May-20 01:24N 37°42' E 121°09'963266614.5
2015-May-20 01:24N 23°04' E 113°30'9768025.9
2015-May-20 01:17N 37°36' E 121°59'9771351.2
2015-May-20 00:33N 23°04' E 113°29'951148915.5
2015-May-20 00:33N 36°54' E 122°27'49519.2
2015-May-20 00:27N 37°37' E 121°60'97817424.6
2015-May-20 00:24N 23°04' E 113°30'64510806.7
2015-May-20 00:20N 32°13' E 119°53'646817.4
2015-May-19 23:33N 23°04' E 113°29'0 2.3
2015-May-19 23:21N 23°04' E 113°30'6947221.2
2015-May-19 23:15N 32°10' E 121°33'32959142.8
2015-May-19 23:15N 37°38' E 122°02'51726.0
2015-May-19 23:11N 36°57' E 122°39'9591540.8
2015-May-19 22:33N 23°04' E 113°29'0119.4
2015-May-19 22:33N 23°04' E 113°30'95338977.4
2015-May-19 22:32N 36°52' E 122°33'28618082.9
2015-May-19 22:31N 32°10' E 121°33'332710.7
2015-May-19 22:03N 37°42' E 121°20'2 3.6
2015-May-19 21:33N 37°42' E 121°18'9671739883.3
2015-May-19 21:33N 23°04' E 113°30'0180.8
2015-May-19 21:33N 23°04' E 113°29'65619860.1
2015-May-19 21:31N 32°04' E 120°30'656680.5
2015-May-19 20:33N 23°04' E 113°30'015.1
2015-May-19 20:31N 23°04' E 113°29'3792108.9
2015-May-19 20:20N 26°08' E 119°34'693108540.9
2015-May-19 20:20N 37°23' E 122°40'9821252.6
2015-May-19 19:33N 23°04' E 113°30'0203.4
2015-May-19 19:33N 23°04' E 113°29'0 0.1
2015-May-19 18:34N 23°04' E 113°29'170.8
2015-May-19 18:33N 23°04' E 113°30'69414696.6
2015-May-19 18:30N 32°10' E 121°33'3776028.4
2015-May-19 18:26N 26°08' E 119°34'377409.4
2015-May-19 17:31N 32°08' E 121°41'69717060.5
2015-May-19 17:29N 23°04' E 113°29'1 3.9
2015-May-19 17:21N 23°04' E 113°30'374469.7
2015-May-19 16:33N 22°33' E 120°14'374122494.9
2015-May-19 16:33N 23°04' E 113°30'37937868.0
2015-May-19 16:32N 26°08' E 119°34'37936880.7
2015-May-19 16:32N 23°04' E 113°29'6973780.3
2015-May-19 16:21N 32°02' E 121°50'697876.5
2015-May-19 15:33N 23°04' E 113°30'69752269.9
2015-May-19 15:32N 31°57' E 121°56'697418285.1
2015-May-19 15:32N 23°04' E 113°29'3793990.0
2015-May-19 15:26N 26°08' E 119°34'70135067.8
2015-May-19 15:25N 37°37' E 122°06'9801129.5
2015-May-19 14:33N 23°04' E 113°29'1290.3
2015-May-19 14:25N 22°54' E 113°35'988253954.3
2015-May-19 14:25N 37°38' E 122°05'98014173.2
2015-May-19 14:21N 23°04' E 113°30'1 0.6
2015-May-19 13:33N 23°04' E 113°29'1 3.5
2015-May-19 13:24N 23°04' E 113°30'0 0.5
2015-May-19 12:33N 23°04' E 113°29'0 3.1
2015-May-19 12:24N 23°04' E 113°30'0 0.5
2015-May-19 11:33N 23°04' E 113°29'0203.4
2015-May-19 11:33N 23°04' E 113°30'98128468.9
2015-May-19 11:31N 37°38' E 122°05'3691049.3
2015-May-19 11:10N 31°29' E 122°20'6911089.5
2015-May-19 10:32N 23°04' E 113°29'0 0.9
2015-May-19 10:27N 23°04' E 113°29'94210660.9
2015-May-19 10:22N 36°42' E 122°28'7 8.5
2015-May-19 09:33N 36°49' E 122°28'948170595.2
2015-May-19 09:33N 23°04' E 113°29'0 2.0
2015-May-19 09:31N 23°04' E 113°29'0 1.9
2015-May-19 09:27N 23°04' E 113°29'95322576.9
2015-May-19 09:25N 36°52' E 122°34'2656903.7
2015-May-19 09:23N 39°05' E 117°44'4982873.1
2015-May-19 09:12N 31°17' E 121°10'641978.3
2015-May-19 08:33N 23°04' E 113°29'0 2.1
2015-May-19 08:31N 23°04' E 113°29'641461572.5
2015-May-19 08:31N 31°17' E 121°11'34522554.1
2015-May-19 08:30N 36°55' E 122°27'495192.9
2015-May-19 08:30N 37°38' E 121°57'38119041.7
2015-May-19 08:28N 31°18' E 122°21'68423898.6
2015-May-19 08:27N 23°04' E 113°29'98610111.4
2015-May-19 08:21N 39°04' E 117°50'50811792.2
2015-May-19 08:18N 31°08' E 121°27'645863.1
2015-May-19 07:34N 23°04' E 113°29'11311.4
2015-May-19 07:31N 22°56' E 113°36'114772.0
2015-May-19 07:31N 23°04' E 113°29'9538032.9
2015-May-19 07:24N 36°55' E 122°27'953127049.9
2015-May-19 07:24N 23°04' E 113°29'0 0.1
2015-May-19 06:34N 23°04' E 113°29'0 0.9
2015-May-19 06:30N 23°04' E 113°29'0 2.1
2015-May-19 06:27N 23°04' E 113°29'6583269.1
2015-May-19 06:15N 31°24' E 121°30'3399852.0
2015-May-19 06:13N 26°02' E 119°30'6624233.3
2015-May-19 06:03N 36°48' E 122°20'9431891.1
2015-May-19 05:33N 23°04' E 113°29'36832321.0
2015-May-19 05:33N 25°58' E 119°25'3688660.1
2015-May-19 05:30N 23°04' E 113°29'3775243.8
2015-May-19 05:26N 22°36' E 120°17'37712239.2
2015-May-19 05:24N 23°04' E 113°29'1081.8
2015-May-19 05:17N 22°57' E 113°36'9737584.0
2015-May-19 05:09N 37°43' E 121°21'9691624.1
2015-May-19 04:33N 23°04' E 113°29'37331956.8
2015-May-19 04:33N 22°39' E 120°13'2034903.0
2015-May-19 04:30N 25°57' E 119°23'3653461.9
2015-May-19 04:24N 23°04' E 113°29'11459.5
2015-May-19 04:22N 23°03' E 113°17'2411611.8
2015-May-19 04:13N 23°36' E 117°38'2303129.2
2015-May-19 04:09N 23°04' E 113°29'915.6
2015-May-19 03:33N 23°03' E 113°19'24013290.2
2015-May-19 03:32N 23°35' E 117°38'15045101.1
2015-May-19 03:32N 22°42' E 120°11'37158064.8
2015-May-19 03:32N 23°04' E 113°29'0 0.7
2015-May-19 03:27N 23°04' E 113°29'0 0.4
2015-May-19 03:12N 23°04' E 113°29'0 0.1
2015-May-19 02:33N 23°04' E 113°29'3655716.6
2015-May-19 02:30N 25°56' E 119°23'36715189.3
2015-May-19 02:28N 22°58' E 113°30'6264.6
2015-May-19 02:27N 23°04' E 113°29'23328911.3
2015-May-19 02:26N 23°35' E 117°40'228718.5
2015-May-19 02:07N 22°57' E 113°36'369656.1
2015-May-19 01:33N 22°37' E 120°16'376225456.4
2015-May-19 01:33N 23°04' E 113°29'10156.1
2015-May-19 01:30N 22°55' E 113°27'1032.9
2015-May-19 01:12N 23°04' E 113°29'36593941.2
2015-May-19 01:12N 25°56' E 119°23'71528931.3
2015-May-19 01:10N 37°43' E 121°33'9731590.2
2015-May-19 00:33N 23°04' E 113°29'646465327.3
2015-May-19 00:33N 31°10' E 121°28'3325363.8
2015-May-19 00:30N 25°56' E 119°23'70719432.4
2015-May-19 00:27N 37°23' E 122°40'98298231.7
2015-May-19 00:27N 23°04' E 113°29'9782652.6
2015-May-19 00:05N 37°38' E 121°58'9781817.1
2015-May-18 23:32N 23°04' E 113°29'10138.7
2015-May-18 23:28N 22°57' E 113°36'9744762.6
2015-May-18 23:16N 37°42' E 121°26'96949840.2
2015-May-18 23:15N 23°04' E 113°29'0 0.1
2015-May-18 22:33N 23°04' E 113°29'0 0.5
2015-May-18 22:26N 23°04' E 113°29'96714450.5
2015-May-18 22:22N 37°42' E 121°20'9671194.6
2015-May-18 21:33N 23°04' E 113°29'10163.5
2015-May-18 21:30N 22°57' E 113°36'1084.2
2015-May-18 21:23N 23°04' E 113°29'233719.4
2015-May-18 21:04N 23°36' E 117°40'8351672.1
2015-May-18 20:34N 36°53' E 122°28'95236840.4
2015-May-18 20:32N 23°04' E 113°29'0 0.7
2015-May-18 20:26N 23°04' E 113°29'0 0.1
2015-May-18 19:32N 23°04' E 113°29'94330876.8
2015-May-18 19:30N 36°43' E 122°30'82687452.2
2015-May-18 19:30N 23°36' E 117°40'2333505.1
2015-May-18 19:26N 23°04' E 113°29'9539690.6
2015-May-18 19:20N 36°55' E 122°27'9531224.2
2015-May-18 18:33N 23°04' E 113°29'23325378.2
2015-May-18 18:33N 23°36' E 117°40'8379503.6
2015-May-18 18:28N 36°55' E 122°27'95312518.8
2015-May-18 18:23N 23°04' E 113°29'0 0.1
2015-May-18 17:33N 23°04' E 113°29'66095059.4
2015-May-18 17:33N 31°11' E 121°50'6688684.8
2015-May-18 17:28N 22°54' E 113°28'10111.3
2015-May-18 17:23N 23°04' E 113°29'661799.8
2015-May-18 16:33N 31°16' E 121°45'66139650.5
2015-May-18 16:32N 23°04' E 113°29'98211299.0
2015-May-18 16:27N 37°23' E 122°41'98214034.9
2015-May-18 16:23N 23°04' E 113°29'63415632.3
2015-May-18 16:21N 30°20' E 122°04'634806.1
2015-May-18 15:33N 23°04' E 113°29'66682653.8
2015-May-18 15:33N 31°21' E 121°48'6665790.2
2015-May-18 15:26N 23°04' E 113°29'0 0.1
2015-May-18 14:33N 23°04' E 113°29'67077831.4
2015-May-18 14:33N 31°27' E 121°48'3233247.5
2015-May-18 14:27N 36°48' E 122°26'94614494.4
2015-May-18 14:23N 23°04' E 113°29'3712172.6
2015-May-18 14:13N 22°30' E 120°10'371561.3
2015-May-18 13:33N 23°04' E 113°29'6193853.3
2015-May-18 13:23N 30°02' E 121°59'6193928.6
2015-May-18 13:14N 23°04' E 113°29'619916.5
2015-May-18 12:33N 29°56' E 122°04'61982467.1
2015-May-18 12:33N 23°04' E 113°29'0 0.6
2015-May-18 12:26N 23°04' E 113°29'616700.3
2015-May-18 11:33N 29°49' E 122°07'61623830.3
2015-May-18 11:32N 23°04' E 113°29'117.8
2015-May-18 11:30N 23°04' E 113°30'111.1
2015-May-18 11:26N 23°04' E 113°29'0 0.1
2015-May-18 10:33N 23°04' E 113°29'61418407.9
2015-May-18 10:31N 29°47' E 122°06'6146818.5
2015-May-18 10:26N 23°04' E 113°29'3652399.5
2015-May-18 10:17N 25°56' E 119°23'71462719.3
2015-May-18 10:16N 37°38' E 122°03'9801372.2
2015-May-18 09:33N 23°04' E 113°29'6147148.7
2015-May-18 09:28N 29°47' E 122°06'61416736.2
2015-May-18 09:26N 23°04' E 113°29'94123516.2
2015-May-18 09:24N 36°41' E 122°26'6645884.2
2015-May-18 09:17N 25°56' E 119°23'36510103.7
2015-May-18 09:15N 23°04' E 113°30'48254.4
2015-May-18 09:03N 22°18' E 113°45'9821979.8
2015-May-18 08:34N 36°47' E 122°30'98165417.2
2015-May-18 08:33N 22°17' E 113°48'504851.5
2015-May-18 08:32N 23°04' E 113°29'1 7.4
2015-May-18 08:27N 23°04' E 113°30'110.6
2015-May-18 08:23N 23°04' E 113°29'365109580.3
2015-May-18 08:23N 25°56' E 119°23'2702434.9
2015-May-18 08:16N 29°46' E 122°04'428603.0
2015-May-18 07:33N 36°54' E 122°27'951114160.6
2015-May-18 07:33N 23°04' E 113°29'64249159.5
2015-May-18 07:32N 31°03' E 121°28'64215000.0
2015-May-18 07:30N 23°04' E 113°30'36523881.3
2015-May-18 07:29N 25°56' E 119°23'3657921.5
2015-May-18 07:26N 23°04' E 113°29'6119367.4
2015-May-18 07:22N 29°46' E 122°04'148735.6
2015-May-18 07:10N 31°59' E 120°50'34215592.1
2015-May-18 07:09N 37°38' E 121°48'9741651.8
2015-May-18 06:33N 23°04' E 113°29'644178205.5
2015-May-18 06:33N 31°07' E 121°28'872600.3
2015-May-18 06:31N 29°46' E 122°04'42844042.8
2015-May-18 06:30N 36°54' E 122°26'77729447.2
2015-May-18 06:29N 24°30' E 118°04'11231111.8
2015-May-18 06:29N 25°56' E 119°23'67856747.8
2015-May-18 06:28N 36°55' E 122°29'95441365.7
2015-May-18 06:27N 23°04' E 113°30'160.7
2015-May-18 06:26N 23°04' E 113°29'647738.7
2015-May-18 05:33N 31°11' E 121°28'34943270.9
2015-May-18 05:33N 36°55' E 122°29'95490350.8
2015-May-18 05:32N 23°04' E 113°29'5118401.6
2015-May-18 05:32N 22°16' E 113°49'1029127703.7
2015-May-18 05:32N 39°05' E 117°45'59867314.8
2015-May-18 05:31N 29°46' E 122°04'26934619.0
2015-May-18 05:31N 25°57' E 119°23'37114376.2
2015-May-18 05:29N 22°54' E 113°28'2351454.8
2015-May-18 05:19N 23°36' E 117°40'2322891.0
2015-May-18 05:15N 23°04' E 113°30'166.9
2015-May-18 05:14N 23°04' E 113°29'650962.0
2015-May-18 04:33N 31°14' E 121°30'503603491.2
2015-May-18 04:33N 39°04' E 117°50'9851773554.8
2015-May-18 04:33N 23°04' E 113°29'513172.5
2015-May-18 04:32N 22°16' E 113°49'36016021.5
2015-May-18 04:31N 22°33' E 120°18'37816189.2
2015-May-18 04:30N 23°04' E 113°30'954286113.0
2015-May-18 04:29N 36°55' E 122°29'95416587.0
2015-May-18 04:26N 23°04' E 113°29'1254.2
2015-May-18 04:26N 23°04' E 113°30'6703828.6
2015-May-18 04:15N 31°27' E 121°47'1723.7
2015-May-18 03:33N 31°16' E 121°33'146210.6
2015-May-18 03:33N 31°23' E 121°47'667133375.6
2015-May-18 03:33N 23°04' E 113°29'512665.0
2015-May-18 03:32N 22°16' E 113°49'102941141.5
2015-May-18 03:30N 39°04' E 117°51'25415491.7
2015-May-18 03:29N 36°55' E 122°29'43122799.1
2015-May-18 03:28N 29°45' E 122°04'4466769.0
2015-May-18 03:24N 22°30' E 120°18'37810889.1
2015-May-18 03:22N 23°04' E 113°30'1 4.7
2015-May-18 03:11N 23°03' E 113°30'913.6
2015-May-18 02:33N 23°02' E 113°21'828667.4
2015-May-18 02:33N 23°04' E 113°29'65760622.4
2015-May-18 02:33N 31°20' E 121°33'50045029.6
2015-May-18 02:32N 39°05' E 117°46'1029336639.5
2015-May-18 02:32N 22°16' E 113°49'68875087.5
2015-May-18 02:31N 31°18' E 121°45'3407319.3
2015-May-18 02:28N 36°55' E 122°29'32512056.5
2015-May-18 02:27N 31°36' E 121°18'66043182.3
2015-May-18 02:26N 23°04' E 113°29'1253.7
2015-May-18 02:26N 23°04' E 113°30'0 3.4
2015-May-18 02:22N 23°04' E 113°30'1 3.8
2015-May-18 02:10N 23°04' E 113°29'6571068.0
2015-May-18 01:33N 31°22' E 121°30'65776240.6
2015-May-18 01:33N 23°04' E 113°29'66132143.5
2015-May-18 01:32N 31°10' E 121°52'6641194528.2
2015-May-18 01:32N 22°58' E 113°32'66121434.2
2015-May-18 01:30N 31°32' E 121°19'68514677.1
2015-May-18 01:27N 22°18' E 113°48'106676724.0
2015-May-18 01:26N 38°44' E 121°37'1163160.5
2015-May-18 01:24N 36°55' E 122°29'9546838.5
2015-May-18 01:16N 23°04' E 113°29'120.0
2015-May-18 01:14N 23°04' E 113°30'1 0.8
2015-May-18 00:33N 23°04' E 113°29'65967762.2
2015-May-18 00:33N 31°25' E 121°31'331397046.3
2015-May-18 00:33N 36°52' E 122°32'1215026.5
2015-May-18 00:31N 38°45' E 121°34'1028108891.1
2015-May-18 00:31N 23°04' E 113°29'1 7.6
2015-May-18 00:26N 23°04' E 113°30'6565874.1
2015-May-18 00:19N 31°21' E 121°31'656859.9
2015-May-17 23:33N 23°04' E 113°29'658148148.7
2015-May-17 23:33N 31°29' E 121°25'84609.0
2015-May-17 23:33N 31°23' E 121°30'3348171.5
2015-May-17 23:30N 36°52' E 122°39'95520110.2
2015-May-17 23:28N 23°04' E 113°29'0 2.8
2015-May-17 23:17N 23°04' E 113°30'9771351.0
2015-May-17 22:33N 36°46' E 123°39'333239949.0
2015-May-17 22:33N 31°34' E 121°19'659118555.1
2015-May-17 22:33N 23°04' E 113°29'609199320.5
2015-May-17 22:33N 29°59' E 121°47'6099247.3
2015-May-17 22:29N 23°04' E 113°30'956382266.4
2015-May-17 22:29N 36°51' E 122°43'9564394.7
2015-May-17 22:16N 23°04' E 113°29'0 0.1
2015-May-17 21:33N 23°04' E 113°29'659237384.5
2015-May-17 21:33N 31°39' E 121°13'31815072.8
2015-May-17 21:32N 36°49' E 122°41'95318653.4
2015-May-17 21:29N 23°04' E 113°30'1154.4
2015-May-17 21:16N 22°54' E 113°35'121228.9
2015-May-17 21:16N 23°04' E 113°29'0 0.1
2015-May-17 20:33N 23°04' E 113°29'441153.4
2015-May-17 20:31N 22°26' E 113°53'44159178.7
2015-May-17 20:31N 23°04' E 113°29'65914745.4
2015-May-17 20:28N 31°44' E 121°06'65918396.9
2015-May-17 20:26N 23°04' E 113°30'1 2.3
2015-May-17 20:12N 23°04' E 113°29'6581023.5
2015-May-17 19:33N 31°46' E 120°60'65898680.5
2015-May-17 19:33N 23°04' E 113°29'0 0.3
2015-May-17 19:19N 23°04' E 113°29'0 5.5
2015-May-17 19:16N 23°04' E 113°29'0 0.3
2015-May-17 18:33N 23°04' E 113°29'0 1.3
2015-May-17 18:28N 23°04' E 113°29'0 4.5
2015-May-17 18:25N 23°04' E 113°29'6122319.3
2015-May-17 18:09N 30°01' E 121°50'612997.3
2015-May-17 17:33N 23°04' E 113°29'61273436.7
2015-May-17 17:32N 30°01' E 121°50'61224482.5
2015-May-17 17:31N 23°04' E 113°29'0 4.5
2015-May-17 17:28N 23°04' E 113°29'0 0.3
2015-May-17 16:33N 23°04' E 113°29'0 2.5
2015-May-17 16:31N 23°04' E 113°29'95518103.0
2015-May-17 16:27N 36°31' E 123°19'95526254.6
2015-May-17 16:25N 23°04' E 113°29'6123618.2
2015-May-17 16:15N 30°01' E 121°50'612877.4
2015-May-17 15:33N 23°04' E 113°29'0 3.5
2015-May-17 15:31N 23°04' E 113°29'0 3.4
2015-May-17 15:28N 23°04' E 113°29'6129664.8
2015-May-17 15:24N 30°01' E 121°50'6155575.6
2015-May-17 15:18N 22°56' E 113°34'0 0.0
2015-May-17 14:33N 22°56' E 113°34'64069.0
2015-May-17 14:33N 22°54' E 113°28'103925.0
2015-May-17 14:33N 23°04' E 113°29'0 3.5
2015-May-17 14:28N 23°04' E 113°29'016.3
2015-May-17 14:28N 23°04' E 113°29'6115910.6
2015-May-17 14:21N 29°60' E 121°49'61563205.8
2015-May-17 14:21N 22°54' E 113°35'9833678.4
2015-May-17 14:05N 38°53' E 117°43'9741852.7
2015-May-17 13:33N 23°04' E 113°29'8787.4
2015-May-17 13:33N 22°56' E 113°30'62131471.8
2015-May-17 13:32N 29°58' E 121°58'13368583.3
2015-May-17 13:31N 31°58' E 120°51'66212749.6
2015-May-17 13:28N 23°04' E 113°29'0 1.3
2015-May-17 13:19N 23°04' E 113°29'97546170.7
2015-May-17 13:17N 36°41' E 123°42'38443.0
2015-May-17 13:12N 36°22' E 123°01'29312564.5
2015-May-17 13:11N 38°53' E 117°43'98132400.1
2015-May-17 13:09N 22°56' E 113°34'6221043.5
2015-May-17 12:33N 29°54' E 122°08'42048740.4
2015-May-17 12:33N 36°45' E 123°46'980882351.4
2015-May-17 12:33N 23°03' E 113°31'24314.5
2015-May-17 12:33N 23°04' E 113°29'9202.9
2015-May-17 12:30N 22°56' E 113°34'9126.4
2015-May-17 12:26N 23°04' E 113°30'1154.4
2015-May-17 12:25N 23°04' E 113°29'0 1.2
2015-May-17 12:15N 23°04' E 113°29'0 0.1
2015-May-17 11:33N 23°04' E 113°29'9187.2
2015-May-17 11:30N 22°56' E 113°34'9380.7
2015-May-17 11:29N 23°04' E 113°30'0 6.2
2015-May-17 11:24N 23°04' E 113°29'0 0.7
2015-May-17 11:04N 23°04' E 113°29'0 0.5
2015-May-17 10:33N 23°04' E 113°29'9660.3
2015-May-17 10:32N 22°56' E 113°34'987296024.5
2015-May-17 10:32N 37°38' E 122°05'98114901.4
2015-May-17 10:28N 23°04' E 113°29'0 8.0
2015-May-17 10:27N 23°04' E 113°29'9793268.7
2015-May-17 10:09N 36°45' E 123°44'34121522.3
2015-May-17 10:08N 31°23' E 121°30'65815077.4
2015-May-17 10:05N 23°02' E 113°31'3 5.8
2015-May-17 09:32N 23°04' E 113°29'012.0
2015-May-17 09:32N 23°04' E 113°29'0 1.9
2015-May-17 09:25N 23°04' E 113°29'341.5
2015-May-17 09:20N 23°02' E 113°31'45560.3
2015-May-17 09:16N 22°18' E 113°45'106534867.8
2015-May-17 09:14N 38°45' E 121°32'1561148.2
2015-May-17 09:06N 36°47' E 123°42'9791804.2
2015-May-17 08:33N 23°04' E 113°29'985186698.7
2015-May-17 08:33N 39°05' E 117°46'98835224.0
2015-May-17 08:31N 23°03' E 113°21'52551.9
2015-May-17 08:25N 22°17' E 113°47'101425703.0
2015-May-17 08:23N 37°38' E 121°56'97819771.6
2015-May-17 08:20N 23°04' E 113°29'0 3.4
2015-May-17 08:16N 23°04' E 113°29'6064121.9
2015-May-17 08:07N 29°39' E 122°01'60313737.5
2015-May-17 08:05N 39°04' E 117°46'9851875.9
2015-May-17 07:33N 23°04' E 113°29'0 6.4
2015-May-17 07:32N 23°04' E 113°29'61113755.4
2015-May-17 07:29N 29°46' E 122°04'6112299.9
2015-May-17 07:13N 23°04' E 113°29'98525161.7
2015-May-17 07:11N 39°04' E 117°50'99322764.7
2015-May-17 07:08N 22°56' E 113°34'4882.1
2015-May-17 06:33N 22°10' E 113°48'5741073.4
2015-May-17 06:33N 23°04' E 113°29'620371817.7
2015-May-17 06:33N 29°55' E 122°08'41226051.1
2015-May-17 06:32N 36°47' E 122°20'943226327.5
2015-May-17 06:32N 23°04' E 113°29'6614601.2
2015-May-17 06:23N 31°55' E 120°53'4563288.7
2015-May-17 06:15N 39°05' E 117°46'9855481.9
2015-May-17 06:04N 23°04' E 113°29'66029342.9
2015-May-17 06:03N 31°12' E 121°48'4 8.5
2015-May-17 05:33N 31°16' E 121°45'7437879.5
2015-May-17 05:33N 30°03' E 121°59'646155103.9
2015-May-17 05:33N 22°10' E 113°48'573937.8
2015-May-17 05:32N 23°04' E 113°29'98518870.5
2015-May-17 05:29N 39°05' E 117°44'98515695.0
2015-May-17 05:25N 23°04' E 113°29'97514995.5
2015-May-17 05:21N 36°43' E 123°39'9757088.5
2015-May-17 05:13N 23°04' E 113°29'1014.4
2015-May-17 04:32N 22°55' E 113°27'491456.2
2015-May-17 04:30N 22°10' E 113°48'572100.8
2015-May-17 04:28N 23°04' E 113°29'069.0
2015-May-17 04:28N 23°04' E 113°29'97324847.4
2015-May-17 04:26N 36°43' E 123°35'97352296.3
2015-May-17 04:25N 23°04' E 113°29'6644.9
2015-May-17 04:24N 22°58' E 113°30'318.9
2015-May-17 04:14N 23°01' E 113°31'6614401.3
2015-May-17 04:05N 31°44' E 121°07'6681281.6
2015-May-17 03:33N 22°54' E 113°29'98464396.3
2015-May-17 03:32N 36°46' E 123°35'33133076.3
2015-May-17 03:32N 31°27' E 121°48'345853.8
2015-May-17 03:32N 31°41' E 121°11'47421894.6
2015-May-17 03:30N 39°05' E 117°45'103549686.5
2015-May-17 03:29N 22°10' E 113°48'103510125.8
2015-May-17 03:23N 39°04' E 117°49'98549270.1
2015-May-17 03:22N 23°04' E 113°29'98562241.8
2015-May-17 03:21N 39°04' E 117°49'0 9.4
2015-May-17 03:18N 39°04' E 117°49'98540770.9
2015-May-17 03:16N 23°04' E 113°29'6115391.0
2015-May-17 03:09N 29°59' E 121°50'6116851.2
2015-May-17 03:04N 23°04' E 113°29'9851929.7
2015-May-17 02:33N 39°04' E 117°50'47852158.6
2015-May-17 02:33N 31°36' E 121°17'693192010.5
2015-May-17 02:33N 22°11' E 113°47'535316.0
2015-May-17 02:32N 23°02' E 113°31'9878543.2
2015-May-17 02:25N 39°04' E 117°49'5554606.8
2015-May-17 02:18N 30°31' E 122°09'64421088.0
2015-May-17 02:16N 23°04' E 113°29'94249140.0
2015-May-17 02:15N 36°29' E 122°52'94224395.7
2015-May-17 02:13N 23°04' E 113°29'0 1.3
2015-May-17 02:04N 23°04' E 113°29'6591279.1
2015-May-17 01:33N 31°32' E 121°23'66050554.2
2015-May-17 01:33N 23°02' E 113°31'342.3
2015-May-17 01:28N 23°04' E 113°29'034.5
2015-May-17 01:28N 23°04' E 113°29'98542742.6
2015-May-17 01:26N 39°05' E 117°46'55211820.0
2015-May-17 01:23N 30°38' E 122°13'65273336.0
2015-May-17 01:23N 23°04' E 113°29'5025540.4
2015-May-17 01:23N 22°18' E 113°48'975206528.1
2015-May-17 01:22N 36°30' E 122°52'94372197.5
2015-May-17 01:22N 23°04' E 113°29'911.4
2015-May-17 00:34N 22°55' E 113°30'666133226.9
2015-May-17 00:33N 31°29' E 121°27'607983.7
2015-May-17 00:33N 30°45' E 122°16'34511933.2
2015-May-17 00:31N 36°29' E 122°51'94116282.1
2015-May-17 00:28N 23°04' E 113°29'010.6
2015-May-17 00:25N 23°04' E 113°29'017.2
2015-May-17 00:25N 23°04' E 113°29'0 2.2
2015-May-17 00:22N 23°04' E 113°29'9381170.6
2015-May-16 23:33N 36°27' E 122°50'94853312.6
2015-May-16 23:32N 22°55' E 113°27'66817549.8
2015-May-16 23:30N 31°26' E 121°30'3043991.1
2015-May-16 23:26N 36°26' E 122°24'621268.9
2015-May-16 23:23N 36°42' E 123°38'97458436.9
2015-May-16 23:22N 23°04' E 113°29'0 1.5
2015-May-16 23:17N 23°04' E 113°29'63956118.8
2015-May-16 23:17N 32°03' E 119°57'63969726.2
2015-May-16 23:16N 23°04' E 113°29'0 6.6
2015-May-16 23:13N 23°04' E 113°29'66828955.4
2015-May-16 23:11N 30°57' E 122°18'406634.2
2015-May-16 22:33N 37°40' E 121°27'37917699.5
2015-May-16 22:32N 31°21' E 121°31'65618452.8
2015-May-16 22:29N 23°04' E 113°29'0 3.7
2015-May-16 22:25N 23°04' E 113°29'93637848.4
2015-May-16 22:23N 36°24' E 122°48'93640097.7
2015-May-16 22:22N 23°04' E 113°29'97814192.7
2015-May-16 22:18N 36°45' E 123°42'346468.1
2015-May-16 21:33N 31°16' E 121°33'5499834.5
2015-May-16 21:30N 40°24' E 122°07'1130176792.5
2015-May-16 21:29N 23°04' E 113°29'0 1.1
2015-May-16 21:23N 23°04' E 113°29'011.4
2015-May-16 21:22N 23°04' E 113°29'93321525.1
2015-May-16 21:19N 36°22' E 122°46'30869253.1
2015-May-16 21:19N 31°15' E 122°20'4355.1
2015-May-16 20:32N 31°12' E 121°30'64916217.8
2015-May-16 20:29N 23°04' E 113°29'0 2.0
2015-May-16 20:26N 23°04' E 113°29'9786591.4
2015-May-16 20:17N 36°45' E 123°43'3482944.1
2015-May-16 20:10N 30°58' E 123°19'707181822.8
2015-May-16 20:10N 23°04' E 113°29'6931115.7
2015-May-16 19:32N 31°33' E 122°19'6936284.1
2015-May-16 19:26N 23°04' E 113°29'012.9
2015-May-16 19:25N 23°04' E 113°29'7065249.4
2015-May-16 19:17N 30°56' E 123°19'70618819.4
2015-May-16 19:14N 23°04' E 113°29'697965.9
2015-May-16 18:31N 31°43' E 122°13'69724110.4
2015-May-16 18:29N 23°04' E 113°29'0 2.7
2015-May-16 18:27N 23°04' E 113°29'010.4
2015-May-16 18:26N 23°04' E 113°29'698780.3
2015-May-16 17:32N 31°51' E 122°06'69820111.8
2015-May-16 17:30N 23°04' E 113°29'0 1.9
2015-May-16 17:26N 23°04' E 113°29'102643984.2
2015-May-16 17:25N 38°44' E 121°29'15514651.3
2015-May-16 17:24N 36°21' E 122°45'15411291.2
2015-May-16 17:24N 38°43' E 121°30'102672429.7
2015-May-16 17:23N 23°04' E 113°29'698846.4
2015-May-16 16:33N 31°57' E 121°58'40947470.6
2015-May-16 16:33N 38°45' E 121°33'102922446.5
2015-May-16 16:30N 23°04' E 113°29'0 8.4
2015-May-16 16:29N 23°04' E 113°29'0 2.1
2015-May-16 16:26N 23°04' E 113°29'9812784.4
2015-May-16 16:05N 36°47' E 123°45'299573.3
2015-May-16 15:33N 32°03' E 121°49'404181839.1
2015-May-16 15:33N 38°47' E 121°38'1562044.6
2015-May-16 15:29N 36°47' E 123°44'98136398.3
2015-May-16 15:27N 23°04' E 113°29'6587430.5
2015-May-16 15:22N 31°24' E 121°30'6585499.2
2015-May-16 15:14N 23°04' E 113°29'696994.0
2015-May-16 14:32N 32°08' E 121°40'69686436.9
2015-May-16 14:32N 23°03' E 113°30'98117145.8
2015-May-16 14:29N 36°48' E 123°43'98137562.1
2015-May-16 14:27N 23°04' E 113°29'103022614.6
2015-May-16 14:24N 38°43' E 121°44'10304595.4
2015-May-16 14:11N 23°04' E 113°29'6651062.3
2015-May-16 13:33N 31°19' E 121°48'5448534.5
2015-May-16 13:33N 32°11' E 121°32'70219280.9
2015-May-16 13:31N 22°55' E 113°30'10554.0
2015-May-16 13:30N 23°04' E 113°29'103247622.0
2015-May-16 13:29N 38°42' E 121°49'1403838.3
2015-May-16 13:27N 36°25' E 122°23'92614876.5
2015-May-16 13:23N 23°04' E 113°29'6582469.0
2015-May-16 13:07N 31°24' E 121°30'6591131.4
2015-May-16 12:32N 23°03' E 113°30'264.6
2015-May-16 12:30N 23°04' E 113°29'661158664.0
2015-May-16 12:30N 31°15' E 121°47'6619958.2
2015-May-16 12:26N 23°04' E 113°29'43370.2
2015-May-16 12:19N 22°26' E 113°52'71414042.4
2015-May-16 12:16N 32°12' E 121°32'703954.2
2015-May-16 11:31N 22°53' E 113°31'11116.9
2015-May-16 11:26N 23°04' E 113°29'6955817.9
2015-May-16 11:19N 32°12' E 121°32'120499.6
2015-May-16 11:04N 30°50' E 123°16'361693.2
2015-May-16 10:33N 36°51' E 123°38'9933575452.7
2015-May-16 10:33N 22°54' E 113°21'13104.6
2015-May-16 10:26N 23°04' E 113°29'6959810.6
2015-May-16 10:22N 32°12' E 121°32'3281149.1
2015-May-16 10:04N 37°38' E 122°05'328636.9
2015-May-16 09:34N 32°12' E 121°32'32856208.7
2015-May-16 09:33N 37°38' E 122°05'105022235.0
2015-May-16 09:30N 21°55' E 113°13'70924.9
2015-May-16 09:26N 23°04' E 113°29'368101960.8
2015-May-16 09:26N 25°58' E 119°25'3681129.8
2015-May-16 09:06N 23°04' E 113°29'6391174.1
2015-May-16 08:33N 31°01' E 121°27'66523488.2
2015-May-16 08:32N 22°17' E 113°47'38113982.0
2015-May-16 08:30N 25°58' E 119°27'369664316.6
2015-May-16 08:30N 23°04' E 113°29'9785606.8
2015-May-16 08:20N 37°38' E 121°57'97810205.4
2015-May-16 08:14N 23°04' E 113°29'9686769.2
2015-May-16 08:05N 37°42' E 121°23'397735.6
2015-May-16 07:33N 31°05' E 121°28'4024342.2
2015-May-16 07:27N 37°46' E 121°23'972269224.2
2015-May-16 07:27N 23°04' E 113°29'0 2.4
2015-May-16 07:23N 23°04' E 113°29'3692054.0
2015-May-16 07:12N 25°58' E 119°27'329508.9
2015-May-16 06:33N 31°10' E 121°28'3296173.4
2015-May-16 06:30N 25°58' E 119°27'7158202.7
2015-May-16 06:25N 37°46' E 121°23'97229661.4
2015-May-16 06:23N 23°04' E 113°29'0 2.2
2015-May-16 06:18N 23°04' E 113°29'650870.5
2015-May-16 05:33N 31°14' E 121°30'6506309.2
2015-May-16 05:27N 23°04' E 113°29'113838.3
2015-May-16 05:27N 22°55' E 113°36'3687710.8
2015-May-16 05:24N 25°58' E 119°27'3691680.0
2015-May-16 05:11N 23°04' E 113°29'7109436.6
2015-May-16 05:06N 31°04' E 123°17'93161.9
2015-May-16 04:32N 31°24' E 121°30'65822790.3
2015-May-16 04:30N 23°04' E 113°29'369442907.3
2015-May-16 04:30N 25°58' E 119°27'379454576.4
2015-May-16 04:30N 23°03' E 113°18'19392.1
2015-May-16 04:27N 22°52' E 113°34'6632459.0
2015-May-16 04:11N 31°20' E 121°33'4445399.4
2015-May-16 04:06N 38°44' E 121°41'442797.2
2015-May-16 03:33N 31°22' E 121°29'65615432.2
2015-May-16 03:30N 23°04' E 113°29'369166091.6
2015-May-16 03:30N 25°58' E 119°27'34415484.2
2015-May-16 03:29N 31°24' E 121°30'6642374.9
2015-May-16 03:12N 23°02' E 113°22'943424451.0
2015-May-16 03:12N 36°36' E 122°31'9391456.6
2015-May-16 02:33N 23°06' E 113°24'3737135.0
2015-May-16 02:30N 25°58' E 119°27'3415903.7
2015-May-16 02:26N 31°22' E 121°28'6554690.2
2015-May-16 02:18N 23°04' E 113°29'6588877.7
2015-May-16 02:14N 31°24' E 121°30'43915662.7
2015-May-16 02:12N 38°44' E 121°51'103357224.6
2015-May-16 02:11N 23°04' E 113°29'11221809.6
2015-May-16 01:34N 40°17' E 122°06'50753693.7
2015-May-16 01:33N 31°57' E 120°19'64513273.9
2015-May-16 01:30N 23°04' E 113°29'36983056.0
2015-May-16 01:30N 25°58' E 119°27'3417223.4
2015-May-16 01:27N 31°22' E 121°28'6823070.8
2015-May-16 01:14N 22°17' E 113°47'501036.6
2015-May-16 01:11N 23°04' E 113°29'11221772.3
2015-May-16 00:33N 40°17' E 122°06'53611553.6
2015-May-16 00:30N 31°22' E 121°28'65726896.9
2015-May-16 00:28N 22°57' E 113°36'66527850.2
2015-May-16 00:27N 32°01' E 120°48'514623.1
2015-May-16 00:26N 31°24' E 121°30'3447840.1
2015-May-16 00:24N 25°58' E 119°27'36921787.0
2015-May-16 00:23N 23°04' E 113°29'0 1.3
2015-May-16 00:15N 23°04' E 113°29'11231594.8
2015-May-15 23:33N 40°17' E 122°06'5363427.1
2015-May-15 23:23N 31°22' E 121°28'65744659.3
2015-May-15 23:22N 22°57' E 113°36'10132.2
2015-May-15 23:18N 23°04' E 113°29'0 1.4
2015-May-15 23:11N 23°04' E 113°29'103067400.9
2015-May-15 23:10N 38°42' E 121°46'438666.9
2015-May-15 22:30N 31°23' E 121°30'6583177.2
2015-May-15 22:18N 23°04' E 113°29'0 2.4
2015-May-15 22:14N 23°04' E 113°29'659974.2
2015-May-15 21:33N 31°27' E 121°27'65926945.1
2015-May-15 21:32N 23°04' E 113°29'0 2.2
2015-May-15 21:26N 23°04' E 113°29'9581081.1
2015-May-15 20:33N 36°52' E 122°45'3275431.9
2015-May-15 20:29N 31°32' E 121°20'66111113.9
2015-May-15 20:25N 22°57' E 113°36'10222.6
2015-May-15 20:23N 23°04' E 113°29'0388.0
2015-May-15 20:23N 23°04' E 113°29'9531159.2
2015-May-15 19:33N 36°52' E 122°34'95333961.3
2015-May-15 19:32N 23°04' E 113°29'0 2.2
2015-May-15 19:26N 23°04' E 113°29'0 0.2
2015-May-15 18:32N 23°04' E 113°29'10133.3
2015-May-15 18:27N 22°57' E 113°37'1046.8
2015-May-15 18:14N 23°04' E 113°29'374558.1
2015-May-15 17:33N 22°32' E 120°13'454544735.7
2015-May-15 17:33N 29°55' E 122°05'61822468.0
2015-May-15 17:32N 22°57' E 113°37'10103.5
2015-May-15 17:26N 23°04' E 113°29'0 3.5
2015-May-15 17:23N 23°04' E 113°29'1656.8
2015-May-15 17:05N 22°54' E 113°15'1935.1
2015-May-15 16:33N 22°55' E 113°36'61043.8
2015-May-15 16:32N 22°53' E 113°30'111137.0
2015-May-15 16:32N 23°04' E 113°29'61122011.7
2015-May-15 16:30N 29°57' E 121°53'6118564.7
2015-May-15 16:26N 23°04' E 113°29'645735.7
2015-May-15 15:33N 31°08' E 121°27'65329000.4
2015-May-15 15:32N 22°54' E 113°30'11106.5
2015-May-15 15:26N 23°04' E 113°29'0 2.1
2015-May-15 15:20N 23°04' E 113°29'65821547.2
2015-May-15 15:18N 31°24' E 121°30'1926.3
2015-May-15 14:33N 31°05' E 121°28'6514972.8
2015-May-15 14:26N 22°54' E 113°29'66622212.0
2015-May-15 14:24N 31°24' E 121°30'65835911.8
2015-May-15 14:23N 23°04' E 113°29'0318.1
2015-May-15 14:23N 23°04' E 113°29'1497.6
2015-May-15 14:14N 22°53' E 113°20'4 5.3
2015-May-15 13:33N 22°50' E 113°19'17869.8
2015-May-15 13:32N 23°04' E 113°29'7218.1
2015-May-15 13:30N 22°57' E 113°30'764.8
2015-May-15 13:23N 23°04' E 113°29'65820610.3
2015-May-15 13:21N 31°24' E 121°30'658804.0
2015-May-15 12:32N 23°04' E 113°29'26911.5
2015-May-15 12:32N 23°03' E 113°30'65930019.2
2015-May-15 12:30N 31°24' E 121°30'49350658.1
2015-May-15 12:30N 23°38' E 118°33'2814181.9
2015-May-15 12:26N 23°04' E 113°29'369397.6
2015-May-15 11:30N 25°58' E 119°27'368331553.2
2015-May-15 11:30N 23°04' E 113°30'2825392.5
2015-May-15 11:27N 23°36' E 118°34'28214944.6
2015-May-15 11:26N 23°04' E 113°29'0 2.2
2015-May-15 11:20N 23°04' E 113°29'1 0.7
2015-May-15 10:30N 23°04' E 113°30'110.7
2015-May-15 10:26N 23°04' E 113°29'0 2.2
2015-May-15 10:20N 23°04' E 113°29'2831429.2
2015-May-15 10:08N 23°35' E 118°35'518814.1
2015-May-15 09:30N 31°59' E 120°48'66237228.9
2015-May-15 09:29N 23°04' E 113°29'0 3.8
2015-May-15 09:26N 23°04' E 113°29'1 5.8
2015-May-15 09:18N 23°04' E 113°30'640857.8
2015-May-15 08:33N 31°56' E 120°12'67236102.7
2015-May-15 08:32N 22°17' E 113°48'5018027.6
2015-May-15 08:32N 23°04' E 113°29'0 1.1
2015-May-15 08:23N 23°04' E 113°29'96082280.0
2015-May-15 08:22N 36°44' E 123°06'3067871.4
2015-May-15 08:20N 31°59' E 120°48'34544421.1
2015-May-15 08:19N 37°39' E 122°06'3514193.8
2015-May-15 08:19N 37°44' E 121°21'97053703.9
2015-May-15 08:18N 23°04' E 113°30'5371.6
2015-May-15 07:33N 22°13' E 113°48'102019958.2
2015-May-15 07:30N 37°39' E 122°03'981441292.1
2015-May-15 07:30N 23°04' E 113°30'9607124.2
2015-May-15 07:22N 36°44' E 123°06'3061954.0
2015-May-15 07:13N 31°59' E 120°48'6628570.7
2015-May-15 07:08N 23°04' E 113°29'5799.3
2015-May-15 06:34N 22°10' E 113°48'57968.4
2015-May-15 06:30N 23°04' E 113°30'110.5
2015-May-15 06:26N 23°04' E 113°29'0 2.2
2015-May-15 06:20N 23°04' E 113°29'97611834.3
2015-May-15 06:15N 37°48' E 121°29'1011196.1
2015-May-15 06:10N 36°44' E 123°06'3062970.2
2015-May-15 06:04N 31°59' E 120°48'71134.4
2015-May-15 05:32N 31°12' E 121°49'66018417.8
2015-May-15 05:30N 23°04' E 113°30'574540.5
2015-May-15 05:29N 22°10' E 113°48'5718654.3
2015-May-15 05:29N 23°04' E 113°29'0 3.6
2015-May-15 05:26N 23°04' E 113°29'6638312.8
2015-May-15 05:21N 31°59' E 120°51'311.3
2015-May-15 05:06N 31°59' E 120°48'6621174.5
2015-May-15 04:33N 23°04' E 113°29'0 4.3
2015-May-15 04:29N 23°04' E 113°29'576416.3
2015-May-15 04:28N 22°10' E 113°48'57585.2
2015-May-15 04:23N 23°04' E 113°29'9767823.7
2015-May-15 04:15N 37°48' E 121°29'384548.7
2015-May-15 03:33N 31°24' E 121°48'622879.9
2015-May-15 03:32N 31°59' E 120°48'1449331.9
2015-May-15 03:32N 31°48' E 120°56'4645658.4
2015-May-15 03:27N 39°05' E 117°46'98513747.1
2015-May-15 03:23N 23°04' E 113°29'0 2.0
2015-May-15 03:17N 23°04' E 113°29'57769.1
2015-May-15 03:12N 22°10' E 113°48'5712117.6
2015-May-15 03:12N 23°04' E 113°29'0 0.1
2015-May-15 02:33N 23°04' E 113°29'566666.6
2015-May-15 02:33N 22°12' E 113°47'555536.7
2015-May-15 02:32N 23°04' E 113°29'97610975.4
2015-May-15 02:27N 37°38' E 121°51'97613936.0
2015-May-15 02:23N 23°04' E 113°29'9853546793.6
2015-May-15 02:23N 39°04' E 117°51'187226.4
2015-May-15 01:33N 37°50' E 121°29'97851757.5
2015-May-15 01:32N 23°04' E 113°29'65669430.0
2015-May-15 01:31N 31°46' E 120°56'4657974.8
2015-May-15 01:28N 39°05' E 117°46'98526077.8
2015-May-15 01:26N 23°04' E 113°29'0 1.0
2015-May-15 01:24N 23°04' E 113°29'6602402.3
2015-May-15 01:08N 31°39' E 121°14'6601107.2
2015-May-15 00:32N 23°04' E 113°29'0 1.7
2015-May-15 00:26N 23°04' E 113°29'0 1.1
2015-May-15 00:24N 23°04' E 113°29'6583828.9
2015-May-15 00:14N 31°24' E 121°30'14168.9
2015-May-15 00:09N 31°35' E 121°19'3 5.9
2015-May-14 23:33N 31°32' E 121°22'3254816.6
2015-May-14 23:29N 36°53' E 122°26'3328129.1
2015-May-14 23:27N 31°24' E 121°30'65835912.1
2015-May-14 23:26N 23°04' E 113°29'0 0.9
2015-May-14 23:21N 23°04' E 113°29'0 8.2
2015-May-14 23:20N 23°04' E 113°29'662844.4
2015-May-14 22:33N 31°59' E 120°48'452392.4
2015-May-14 22:32N 31°29' E 121°27'3286896.7
2015-May-14 22:29N 36°53' E 122°26'95016855.9
2015-May-14 22:26N 23°04' E 113°29'0 0.8
2015-May-14 22:08N 23°04' E 113°29'6591142.8
2015-May-14 21:33N 31°26' E 121°30'65928597.4
2015-May-14 21:32N 23°04' E 113°29'95118905.6
2015-May-14 21:29N 36°53' E 122°26'3153043.6
2015-May-14 21:23N 32°04' E 119°54'6546277.6
2015-May-14 21:16N 22°54' E 113°15'9661218.5
2015-May-14 20:29N 36°53' E 122°26'3051287.0
2015-May-14 20:15N 31°59' E 120°48'66234532.9
2015-May-14 20:14N 23°04' E 113°29'6609062.5
2015-May-14 20:09N 31°25' E 121°31'6609311.8
2015-May-14 20:05N 23°04' E 113°29'6601232.2
2015-May-14 19:33N 31°25' E 121°31'66051619.7
2015-May-14 19:32N 23°04' E 113°29'63826696.1
2015-May-14 19:31N 31°59' E 120°01'31810997.9
2015-May-14 19:29N 36°53' E 122°26'95017108.4
2015-May-14 19:26N 23°04' E 113°29'9776879.7
2015-May-14 19:17N 38°54' E 117°52'248334.9
2015-May-14 18:33N 36°53' E 122°26'24822867.4
2015-May-14 18:32N 38°54' E 117°52'48428573.8
2015-May-14 18:31N 31°24' E 121°31'7815587.3
2015-May-14 18:31N 31°57' E 120°08'64021929.0
2015-May-14 18:29N 23°04' E 113°29'0 0.7
2015-May-14 18:14N 23°04' E 113°29'6604017.5
2015-May-14 18:04N 31°25' E 121°31'73141.3
2015-May-14 17:33N 31°57' E 120°14'31694780.2
2015-May-14 17:33N 36°53' E 122°26'95183461.1
2015-May-14 17:32N 23°04' E 113°29'66241084.7
2015-May-14 17:31N 31°59' E 120°48'6622280.1
2015-May-14 17:14N 23°04' E 113°29'9521394.0
2015-May-14 16:33N 36°52' E 122°30'41765278.9
2015-May-14 16:32N 29°56' E 122°00'616130381.3
2015-May-14 16:32N 23°04' E 113°29'648777430.0
2015-May-14 16:32N 31°59' E 120°21'788824.3
2015-May-14 16:31N 30°59' E 121°19'6336646.6
2015-May-14 16:26N 23°04' E 113°29'1249.7
2015-May-14 16:11N 23°03' E 113°16'66720686.7
2015-May-14 16:09N 31°24' E 121°31'88143.7
2015-May-14 15:33N 29°58' E 121°51'61731732.6
2015-May-14 15:31N 23°02' E 113°21'26804.8
2015-May-14 15:31N 23°03' E 113°19'938.9
2015-May-14 15:17N 23°04' E 113°29'0 3.1
2015-May-14 15:14N 23°04' E 113°29'2 3.4
2015-May-14 14:33N 23°05' E 113°27'96761067.3
2015-May-14 14:32N 37°04' E 122°41'966128842.0
2015-May-14 14:32N 23°04' E 113°29'65811910.4
2015-May-14 14:29N 31°24' E 121°30'20434.8
2015-May-14 14:26N 31°05' E 121°28'642128483.9
2015-May-14 14:26N 23°04' E 113°29'1 0.7
2015-May-14 13:33N 23°04' E 113°29'9743506546.0
2015-May-14 13:33N 37°12' E 122°44'3681325612.7
2015-May-14 13:33N 31°09' E 121°27'6458834.9
2015-May-14 13:29N 23°04' E 113°29'6587087.7
2015-May-14 13:23N 32°00' E 120°39'574433.9
2015-May-14 13:23N 31°24' E 121°30'6584422.0
2015-May-14 13:14N 23°04' E 113°29'1 1.2
2015-May-14 12:33N 23°04' E 113°30'660594011.5
2015-May-14 12:33N 32°01' E 120°43'665934.4
2015-May-14 12:33N 31°25' E 121°48'66961720.6
2015-May-14 12:32N 23°04' E 113°29'65012721.4
2015-May-14 12:29N 31°14' E 121°30'102096.0
2015-May-14 12:29N 31°24' E 121°30'2 2.1
2015-May-14 11:33N 31°23' E 121°30'152675.3
2015-May-14 11:33N 31°18' E 121°46'663596516.8
2015-May-14 11:33N 23°04' E 113°30'645773561.3
2015-May-14 11:33N 31°09' E 121°27'611514.8
2015-May-14 11:31N 31°59' E 120°48'277.4
2015-May-14 11:29N 31°59' E 120°45'59106514.1
2015-May-14 11:29N 31°17' E 121°34'38157165.1
2015-May-14 11:28N 37°33' E 122°44'99222189.0
2015-May-14 11:26N 23°04' E 113°29'6586547.4
2015-May-14 11:20N 31°24' E 121°30'1621.0
2015-May-14 10:33N 31°08' E 121°27'194278.9
2015-May-14 10:33N 31°13' E 121°49'6612378222.7
2015-May-14 10:33N 23°04' E 113°30'131.9
2015-May-14 10:32N 23°04' E 113°29'65627474.3
2015-May-14 10:30N 31°21' E 121°32'37942598.0
2015-May-14 10:30N 37°38' E 122°03'98013316.0
2015-May-14 10:26N 23°04' E 113°29'66013203.5
2015-May-14 10:23N 31°59' E 120°45'5263.1
2015-May-14 09:33N 31°23' E 121°30'657107535.1
2015-May-14 09:32N 23°04' E 113°30'186.3
2015-May-14 09:32N 23°04' E 113°29'0 1.4
2015-May-14 09:23N 23°04' E 113°29'1 1.0
2015-May-14 08:33N 23°04' E 113°30'641121446.3
2015-May-14 08:33N 31°57' E 120°12'7215309.6
2015-May-14 08:33N 31°26' E 121°29'65949398.9
2015-May-14 08:32N 23°04' E 113°29'0 1.0
2015-May-14 08:23N 23°04' E 113°29'6605200.5
2015-May-14 08:15N 31°59' E 120°45'2333.5
2015-May-14 07:33N 31°58' E 120°18'645464453.3
2015-May-14 07:33N 23°04' E 113°30'65941648.1
2015-May-14 07:32N 31°57' E 120°47'660296836.6
2015-May-14 07:32N 23°04' E 113°29'7448.7
2015-May-14 07:31N 23°02' E 113°21'6682765.4
2015-May-14 07:16N 31°57' E 120°52'6626693.6
2015-May-14 07:11N 23°04' E 113°29'969268406.0
2015-May-14 07:10N 37°44' E 121°21'9691571.0
2015-May-14 06:33N 23°04' E 113°30'124.5
2015-May-14 06:32N 23°04' E 113°29'97222427.3
2015-May-14 06:29N 37°44' E 121°26'3532565.6
2015-May-14 06:21N 31°53' E 120°49'6575236.4
2015-May-14 06:14N 23°04' E 113°29'1 1.1
2015-May-14 05:33N 23°04' E 113°30'1 9.1
2015-May-14 05:29N 23°04' E 113°29'0 2.9
2015-May-14 05:26N 23°04' E 113°29'6634983.0
2015-May-14 05:18N 32°00' E 120°49'697938.2
2015-May-14 04:33N 22°10' E 113°52'5811655.2
2015-May-14 04:33N 23°04' E 113°29'3781448.8
2015-May-14 04:17N 22°32' E 120°18'3786579.1
2015-May-14 04:14N 23°04' E 113°29'66110087.9
2015-May-14 04:10N 31°56' E 120°53'66125062.1
2015-May-14 04:08N 23°04' E 113°29'6631147.8
2015-May-14 03:33N 32°01' E 120°47'663596250.6
2015-May-14 03:33N 23°04' E 113°29'5089756.2
2015-May-14 03:33N 22°18' E 113°48'66885894.9
2015-May-14 03:33N 31°04' E 121°28'3969695.6
2015-May-14 03:30N 37°40' E 121°39'40122218.7
2015-May-14 03:29N 30°59' E 121°20'634103675.3
2015-May-14 03:29N 23°04' E 113°29'65914207.7
2015-May-14 03:26N 31°52' E 120°54'62494.2
2015-May-14 03:26N 31°46' E 120°56'65687423.4
2015-May-14 03:26N 23°04' E 113°29'95075975.6
2015-May-14 03:25N 36°45' E 122°39'342394.4
2015-May-14 02:33N 31°08' E 121°27'645773701.9
2015-May-14 02:33N 23°04' E 113°29'971183890.4
2015-May-14 02:32N 37°42' E 121°29'34249296.5
2015-May-14 02:32N 32°01' E 120°47'668343411.3
2015-May-14 02:32N 23°02' E 113°24'9513423179.1
2015-May-14 02:32N 36°46' E 122°32'8626244.0
2015-May-14 02:24N 22°31' E 120°18'96921810.2
2015-May-14 02:21N 38°38' E 121°43'103155378.2
2015-May-14 02:20N 23°04' E 113°16'6665192.0
2015-May-14 02:12N 31°24' E 121°30'251378.3
2015-May-14 02:11N 30°60' E 121°25'52628.5
2015-May-14 02:06N 31°47' E 121°00'6581213.5
2015-May-14 01:33N 23°04' E 113°29'64986507.8
2015-May-14 01:33N 31°12' E 121°30'3301187550.9
2015-May-14 01:33N 25°60' E 119°29'31934799.3
2015-May-14 01:32N 31°01' E 121°28'35819233.0
2015-May-14 01:31N 36°55' E 122°29'30620759.8
2015-May-14 01:30N 32°01' E 120°47'6635045.8
2015-May-14 01:23N 23°04' E 113°29'10252.6
2015-May-14 01:20N 22°57' E 113°37'66018707.5
2015-May-14 01:18N 31°24' E 121°30'3771355906.8
2015-May-14 01:18N 37°41' E 121°27'681.3
2015-May-14 01:13N 37°47' E 121°29'383577.9
2015-May-14 00:34N 31°24' E 121°30'1935066.7
2015-May-14 00:34N 31°05' E 121°28'64333051.9
2015-May-14 00:32N 23°04' E 113°29'65255867.2
2015-May-14 00:32N 31°15' E 121°31'602169.0
2015-May-14 00:30N 32°01' E 120°47'6638939.8
2015-May-14 00:26N 23°04' E 113°29'9549203.5
2015-May-14 00:19N 36°55' E 122°29'2893354.8
2015-May-14 00:14N 32°10' E 121°32'3308920.0
2015-May-14 00:12N 37°40' E 121°27'98310443.0
2015-May-14 00:06N 22°43' E 113°40'6561200.6
2015-May-13 23:34N 31°10' E 121°28'646232537.2
2015-May-13 23:33N 23°04' E 113°29'66356823.4
2015-May-13 23:33N 32°01' E 120°47'34715816.4
2015-May-13 23:31N 37°47' E 121°21'98613549.9
2015-May-13 23:27N 22°46' E 113°37'96635496.3
2015-May-13 23:25N 36°55' E 122°29'34024949.4
2015-May-13 23:25N 31°19' E 121°33'38040249.2
2015-May-13 23:24N 37°39' E 121°28'3304629.1
2015-May-13 23:20N 32°08' E 121°30'6914549.6
2015-May-13 23:11N 23°04' E 113°29'6585616.9
2015-May-13 23:04N 31°24' E 121°30'1122.8
2015-May-13 22:34N 31°13' E 121°30'650212690.7
2015-May-13 22:33N 23°04' E 113°29'663477293.8
2015-May-13 22:33N 32°01' E 120°47'544087.3
2015-May-13 22:32N 31°21' E 121°30'16238.8
2015-May-13 22:28N 31°34' E 121°20'32033830.9
2015-May-13 22:28N 36°49' E 122°25'94623661.3
2015-May-13 22:26N 23°04' E 113°29'95490338.2
2015-May-13 22:25N 36°55' E 122°29'69309.6
2015-May-13 22:12N 37°43' E 121°27'3547761.7
2015-May-13 22:09N 31°51' E 120°54'4269.8
2015-May-13 21:33N 31°24' E 121°31'659215584.6
2015-May-13 21:33N 23°04' E 113°29'106145459.2
2015-May-13 21:32N 39°54' E 119°49'1515422.0
2015-May-13 21:30N 37°44' E 121°27'38911582.9
2015-May-13 21:28N 31°15' E 121°32'3446870.9
2015-May-13 21:25N 36°55' E 122°29'95424005.8
2015-May-13 21:23N 23°04' E 113°29'59914481.6
2015-May-13 21:20N 29°28' E 122°02'599770.1
2015-May-13 20:33N 23°04' E 113°29'954156036.3
2015-May-13 20:33N 36°55' E 122°29'33299461.4
2015-May-13 20:33N 31°28' E 121°27'1182462.8
2015-May-13 20:30N 29°34' E 122°01'1062124.3
2015-May-13 20:27N 31°17' E 121°34'6552937.5
2015-May-13 20:14N 23°04' E 113°29'0 0.0
2015-May-13 19:33N 23°04' E 113°29'658157969.1
2015-May-13 19:33N 31°31' E 121°22'329197466.0
2015-May-13 19:33N 36°55' E 122°29'3381188.4
2015-May-13 19:16N 31°21' E 121°32'65716531.8
2015-May-13 19:14N 23°04' E 113°29'659985.6
2015-May-13 18:33N 31°35' E 121°18'171100.1
2015-May-13 18:32N 31°21' E 121°30'65681439.5
2015-May-13 18:32N 23°04' E 113°29'94956033.2
2015-May-13 18:31N 36°51' E 122°28'94910485.0
2015-May-13 18:26N 23°04' E 113°29'6455186.4
2015-May-13 18:18N 31°58' E 120°19'645865.3
2015-May-13 17:33N 23°04' E 113°29'642192566.0
2015-May-13 17:33N 31°56' E 120°15'30691800.6
2015-May-13 17:33N 36°42' E 122°26'309138903.6
2015-May-13 17:33N 31°39' E 121°13'1281243.4
2015-May-13 17:27N 29°39' E 122°03'60634091.6
2015-May-13 17:26N 23°04' E 113°29'0 0.0
2015-May-13 16:33N 23°04' E 113°29'606242443.7
2015-May-13 16:33N 29°39' E 122°03'1331103.9
2015-May-13 16:26N 31°43' E 121°07'659790986.6
2015-May-13 16:26N 23°04' E 113°29'63910360.2
2015-May-13 16:22N 31°56' E 120°08'41227.7
2015-May-13 16:11N 31°46' E 120°55'6551032.8
2015-May-13 15:33N 23°04' E 113°29'60670381.2
2015-May-13 15:32N 29°38' E 122°03'6065232.3
2015-May-13 15:26N 23°04' E 113°29'658757.2
2015-May-13 14:33N 31°32' E 121°20'658789976.5
2015-May-13 14:33N 23°04' E 113°29'606218177.4
2015-May-13 14:33N 29°38' E 122°03'6071927.8
2015-May-13 14:14N 22°56' E 113°36'1116.0
2015-May-13 13:33N 23°04' E 113°29'65927261.0
2015-May-13 13:32N 31°35' E 121°18'1071395.0
2015-May-13 13:27N 29°55' E 122°04'61821376.2
2015-May-13 13:26N 23°04' E 113°29'0 0.1
2015-May-13 12:33N 23°04' E 113°29'615553722.9
2015-May-13 12:33N 29°58' E 121°58'105377845.5
2015-May-13 12:33N 31°36' E 121°17'37221251.0
2015-May-13 12:32N 37°48' E 121°27'98157883.9
2015-May-13 12:31N 22°55' E 113°36'6481165978.6
2015-May-13 12:31N 31°08' E 121°27'6451695.6
2015-May-13 12:08N 23°04' E 113°29'0 0.3
2015-May-13 11:33N 23°04' E 113°29'659113045.5
2015-May-13 11:33N 31°38' E 121°15'663238653.1
2015-May-13 11:33N 23°03' E 113°25'61439501.5
2015-May-13 11:32N 29°58' E 121°51'47010315.0
2015-May-13 11:29N 37°48' E 121°27'3836105.0
2015-May-13 11:25N 31°24' E 121°30'38220.8
2015-May-13 11:15N 31°46' E 120°55'41710508.0
2015-May-13 11:13N 38°42' E 121°41'10281563.2
2015-May-13 10:33N 23°04' E 113°29'970129380.8
2015-May-13 10:33N 37°43' E 121°27'3781373.2
2015-May-13 10:16N 31°24' E 121°30'6593297.2
2015-May-13 10:04N 22°57' E 113°37'1120.6
2015-May-13 09:33N 23°04' E 113°29'71671.5
2015-May-13 09:33N 23°02' E 113°22'972152133.7
2015-May-13 09:33N 37°40' E 121°26'97718607.1
2015-May-13 09:30N 22°54' E 113°30'9725066.1
2015-May-13 09:18N 37°42' E 121°09'9631279.9
2015-May-13 08:33N 23°04' E 113°29'190.9
2015-May-13 08:33N 23°05' E 113°28'966115943.9
2015-May-13 08:32N 37°42' E 121°17'6315.5
2015-May-13 08:31N 37°40' E 121°25'97215210.5
2015-May-13 08:27N 23°02' E 113°23'103416476.0
2015-May-13 08:23N 38°40' E 121°50'4123964.8
2015-May-13 08:17N 31°51' E 120°53'6653290.0
2015-May-13 08:05N 23°04' E 113°16'9761839.9
2015-May-13 07:33N 37°43' E 121°26'349628925.3
2015-May-13 07:33N 31°55' E 120°52'455817.9
2015-May-13 07:33N 31°23' E 121°30'37750283.6
2015-May-13 07:32N 37°40' E 121°28'96823242.3
2015-May-13 07:30N 23°04' E 113°29'65645396.5
2015-May-13 07:29N 31°47' E 120°56'65131690.9
2015-May-13 07:27N 23°06' E 113°35'1098.2
2015-May-13 07:22N 23°04' E 113°25'9876469.4
2015-May-13 07:13N 39°05' E 117°46'194294.0
2015-May-13 06:33N 37°43' E 121°30'971582714.3
2015-May-13 06:33N 23°04' E 113°29'985147788.2
2015-May-13 06:33N 39°04' E 117°50'19027352.7
2015-May-13 06:32N 37°40' E 121°27'35538699.1
2015-May-13 06:32N 31°47' E 120°56'142463.0
2015-May-13 06:31N 31°60' E 120°49'6656108.0
2015-May-13 06:25N 23°04' E 113°25'6593369.5
2015-May-13 06:13N 31°22' E 121°30'656992.0
2015-May-13 05:33N 23°04' E 113°29'97383414.1
2015-May-13 05:33N 37°43' E 121°34'5102.5
2015-May-13 05:30N 37°41' E 121°28'1932344.9
2015-May-13 05:25N 39°04' E 117°46'318.5
2015-May-13 05:16N 39°04' E 117°50'  
Track history (hours):
 
Tides and Currents Weather Stations Pressure Air Temp Water Temp Dewpoint Dewpoint Depression Visibility Wind Speed Wind Dir Waves Ship Positions

Callsign 000000 (name unknown)

Last reported at 2015-May-23 04:33 UTC. Time now 2015-May-23 05:49 UTC.
Position N 31°20' E 121°33'.

Type: Fishing. MMSI: 200007452.

Date/timePositionNaut miles runAvg speedWind from/ knotsBaromVisibWave heightAir tempDewpointWater temp
2015-May-23 04:33N 31°20' E 121°33'49885455.3
2015-May-23 04:33N 39°04' E 117°49'49655775.8
2015-May-23 04:33N 31°21' E 121°27'66214712.5
2015-May-23 04:30N 22°53' E 113°31'98331321.2
2015-May-23 04:28N 37°44' E 121°33'3835162.4
2015-May-23 04:24N 31°21' E 121°32'68913702.8
2015-May-23 04:21N 22°10' E 113°48'10351310.0
2015-May-23 03:33N 39°04' E 117°50'49426567.8
2015-May-23 03:32N 31°23' E 121°30'3514.1
2015-May-23 03:32N 31°21' E 121°27'68712753.2
2015-May-23 03:28N 22°10' E 113°48'6972764.0
2015-May-23 03:13N 31°55' E 120°54'1113506.4
2015-May-23 03:13N 32°02' E 120°44'6991037.6
2015-May-23 02:33N 22°10' E 113°48'68866900.1
2015-May-23 02:32N 31°21' E 121°27'49581018.3
2015-May-23 02:32N 39°04' E 117°51'116.4
2015-May-23 02:30N 39°04' E 117°51'1 6.8
2015-May-23 02:21N 39°04' E 117°50'4452128.4
2015-May-23 02:09N 32°02' E 120°44'5593.5
2015-May-23 01:33N 31°21' E 121°27'49689198.3
2015-May-23 01:33N 39°04' E 117°50'49729329.5
2015-May-23 01:32N 31°21' E 121°31'49844777.9
2015-May-23 01:31N 39°04' E 117°48'258103015.9
2015-May-23 01:31N 37°27' E 122°52'102414925.1
2015-May-23 01:27N 22°17' E 113°50'68729438.4
2015-May-23 01:26N 32°04' E 120°31'4394585.6
2015-May-23 01:20N 39°04' E 117°50'448569.4
2015-May-23 00:33N 32°00' E 120°49'5160779.6
2015-May-23 00:33N 31°21' E 121°27'2621.9
2015-May-23 00:33N 31°22' E 121°30'370147875.7
2015-May-23 00:32N 37°25' E 122°53'34510337.7
2015-May-23 00:30N 31°55' E 120°54'4561014.2
2015-May-23 00:03N 39°05' E 117°46'261504.8
2015-May-22 23:32N 37°24' E 122°53'37015117.0
2015-May-22 23:31N 31°21' E 121°27'2890.3
2015-May-22 23:13N 30°59' E 121°09'3604319.1
2015-May-22 23:08N 36°45' E 123°09'334583.5
2015-May-22 22:33N 31°21' E 121°27'6597044.1
2015-May-22 22:28N 23°07' E 113°17'38717215.0
2015-May-22 22:26N 26°08' E 119°34'6976607.5
2015-May-22 22:20N 37°24' E 122°56'3423776.7
2015-May-22 22:14N 31°57' E 120°52'623407.0
2015-May-22 22:13N 30°58' E 121°14'4 5.7
2015-May-22 21:33N 30°58' E 121°18'39550738.8
2015-May-22 21:33N 37°24' E 122°57'37013882.7
2015-May-22 21:31N 31°21' E 121°27'6593646.4
2015-May-22 21:20N 23°06' E 113°18'9971263.8
2015-May-22 20:33N 37°24' E 123°06'372148686.3
2015-May-22 20:33N 31°21' E 121°27'378679654.8
2015-May-22 20:33N 37°38' E 122°03'378356.4
2015-May-22 19:29N 31°21' E 121°27'3734723.9
2015-May-22 19:24N 37°25' E 123°08'358416.5
2015-May-22 18:33N 31°40' E 121°13'328289.9
2015-May-22 18:33N 31°27' E 121°48'1810980.1
2015-May-22 18:32N 31°21' E 121°27'32937010.4
2015-May-22 18:32N 26°08' E 119°34'6628422.2
2015-May-22 18:27N 36°44' E 123°10'43171.2
2015-May-22 18:12N 37°26' E 123°06'1075349.3
2015-May-22 18:11N 38°46' E 121°35'432689.4
2015-May-22 17:33N 31°34' E 121°19'295212.6
2015-May-22 17:33N 31°19' E 121°48'18812.3
2015-May-22 17:32N 31°21' E 121°27'32529966.3
2015-May-22 17:31N 36°36' E 123°06'95711329.8
2015-May-22 17:26N 23°06' E 113°18'98318922.4
2015-May-22 17:23N 37°38' E 122°04'985322406.1
2015-May-22 17:23N 22°56' E 113°36'66214529.6
2015-May-22 17:20N 31°34' E 121°20'36410920.8
2015-May-22 17:18N 37°27' E 123°05'1041028.5
2015-May-22 17:12N 38°46' E 121°39'435675.7
2015-May-22 16:33N 31°31' E 121°24'10482.0
2015-May-22 16:32N 31°21' E 121°27'181015.0
2015-May-22 16:31N 31°15' E 121°47'241049.6
2015-May-22 16:30N 31°30' E 121°26'43611900.3
2015-May-22 16:28N 38°46' E 121°43'1026528.0
2015-May-22 16:27N 37°28' E 123°05'49868.2
2015-May-22 16:23N 36°40' E 123°18'3241125.4
2015-May-22 16:06N 31°31' E 121°22'1018.6
2015-May-22 15:33N 31°21' E 121°27'53781.4
2015-May-22 15:33N 31°26' E 121°30'37032446.8
2015-May-22 15:33N 37°27' E 123°04'36918197.4
2015-May-22 15:31N 31°27' E 121°29'5143.8
2015-May-22 15:29N 31°29' E 121°25'1 6.3
2015-May-22 15:20N 31°30' E 121°24'1012.2
2015-May-22 14:33N 31°24' E 121°32'5775.0
2015-May-22 14:33N 31°21' E 121°27'5486.2
2015-May-22 14:32N 31°25' E 121°31'894271.1
2015-May-22 14:31N 29°58' E 121°50'98278.4
2015-May-22 14:10N 31°32' E 121°20'100162.2
2015-May-22 13:33N 29°58' E 121°59'9123410.6
2015-May-22 13:32N 31°25' E 121°31'5279.7
2015-May-22 13:31N 31°21' E 121°27'33318451.9
2015-May-22 13:30N 36°44' E 123°10'3332580.5
2015-May-22 13:22N 31°21' E 121°27'6542369.2
2015-May-22 13:06N 23°04' E 113°29'6601184.2
2015-May-22 12:32N 31°25' E 121°31'9638483.3
2015-May-22 12:32N 29°55' E 122°08'946356.5
2015-May-22 12:31N 31°21' E 121°27'65426460.7
2015-May-22 12:30N 23°04' E 113°29'6545354.2
2015-May-22 12:23N 31°21' E 121°27'4 4.6
2015-May-22 11:33N 31°24' E 121°31'997145.4
2015-May-22 11:33N 29°49' E 122°05'981288.4
2015-May-22 11:28N 31°21' E 121°27'6545466.0
2015-May-22 11:21N 23°04' E 113°29'65430986.9
2015-May-22 11:20N 31°21' E 121°27'3342423.3
2015-May-22 11:11N 36°43' E 123°13'3443578.5
2015-May-22 11:06N 31°19' E 120°56'2751.2
2015-May-22 10:33N 31°21' E 121°27'7374.6
2015-May-22 10:32N 31°29' E 121°26'7226.1
2015-May-22 10:30N 31°21' E 121°27'1017705.5
2015-May-22 10:30N 29°45' E 121°59'1472685.0
2015-May-22 10:26N 31°59' E 120°50'34411249.8
2015-May-22 10:24N 37°38' E 121°60'38280960.2
2015-May-22 10:24N 31°19' E 120°58'44914311.0
2015-May-22 10:22N 38°47' E 121°40'4464924.5
2015-May-22 10:17N 31°21' E 121°27'6544957.9
2015-May-22 10:09N 23°04' E 113°29'6541102.4
2015-May-22 09:33N 31°21' E 121°27'5322.3
2015-May-22 09:32N 31°26' E 121°29'5155.9
2015-May-22 09:30N 31°21' E 121°27'0 2.4
2015-May-22 09:24N 31°21' E 121°27'446178340.2
2015-May-22 09:23N 38°47' E 121°31'102923757.3
2015-May-22 09:21N 23°04' E 113°29'9857094.7
2015-May-22 09:12N 39°05' E 117°45'2944689.8
2015-May-22 09:09N 36°43' E 123°12'4247239.6
2015-May-22 09:05N 29°43' E 121°55'102192.1
2015-May-22 08:33N 31°23' E 121°30'3462.3
2015-May-22 08:33N 31°21' E 121°27'0 0.3
2015-May-22 08:32N 31°21' E 121°27'49650975.2
2015-May-22 08:31N 39°04' E 117°50'59618494.8
2015-May-22 08:29N 29°43' E 121°55'42410115.7
2015-May-22 08:27N 36°43' E 123°12'3334389.5
2015-May-22 08:22N 31°21' E 121°27'6622741.2
2015-May-22 08:08N 22°54' E 113°28'406301.3
2015-May-22 08:07N 22°18' E 113°46'492022.4
2015-May-22 08:06N 23°04' E 113°29'6541211.3
2015-May-22 07:33N 31°21' E 121°27'65467311.9
2015-May-22 07:33N 23°04' E 113°29'657591401.0
2015-May-22 07:33N 31°49' E 120°54'405488.4
2015-May-22 07:32N 31°21' E 121°27'648233301.7
2015-May-22 07:32N 23°06' E 113°37'98288346.9
2015-May-22 07:31N 39°04' E 117°51'102838150.3
2015-May-22 07:30N 22°17' E 113°49'68126075.8
2015-May-22 07:28N 31°21' E 121°27'33392229.4
2015-May-22 07:28N 36°42' E 123°14'3345101.2
2015-May-22 07:24N 31°20' E 121°25'2 2.6
2015-May-22 06:33N 31°21' E 121°27'129.9
2015-May-22 06:30N 31°22' E 121°29'1630.9
2015-May-22 06:30N 31°21' E 121°27'65417847.9
2015-May-22 06:28N 23°04' E 113°29'96410426.6
2015-May-22 06:23N 36°45' E 123°14'29448154.7
2015-May-22 06:22N 39°05' E 117°46'4482699.5
2015-May-22 06:12N 32°01' E 120°46'33388.0
2015-May-22 06:07N 31°39' E 121°15'2035.1
2015-May-22 05:33N 31°21' E 121°27'50180427.2
2015-May-22 05:33N 31°60' E 120°49'501655.4
2015-May-22 05:31N 31°21' E 121°27'495.1
2015-May-22 05:28N 31°22' E 121°24'3356814.8
2015-May-22 05:26N 36°45' E 123°14'3245326.7
2015-May-22 05:22N 31°35' E 121°19'66013967.1
2015-May-22 05:19N 23°04' E 113°29'654842.2
2015-May-22 04:32N 31°21' E 121°27'0 0.0
2015-May-22 04:32N 31°21' E 121°27'111354.9
2015-May-22 04:32N 31°32' E 121°23'66052763.9
2015-May-22 04:31N 23°04' E 113°29'96311257.1
2015-May-22 04:26N 36°45' E 123°11'2929828.2
2015-May-22 04:24N 39°05' E 117°46'4924687.4
2015-May-22 04:18N 31°25' E 121°22'105614.2
2015-May-22 04:08N 29°45' E 122°00'5951038.2
2015-May-22 03:33N 39°04' E 117°51'49568550.6
2015-May-22 03:33N 31°21' E 121°27'853.3
2015-May-22 03:24N 31°29' E 121°27'3191385.7
2015-May-22 03:10N 36°46' E 122°18'9461536.9
2015-May-22 02:34N 23°03' E 113°21'66121815.7
2015-May-22 02:32N 31°21' E 121°27'0 0.0
2015-May-22 02:31N 31°21' E 121°27'6516.4
2015-May-22 02:30N 31°27' E 121°29'4919819.1
2015-May-22 02:27N 39°04' E 117°50'478531.6
2015-May-22 01:34N 31°38' E 121°21'692165983.2
2015-May-22 01:33N 22°17' E 113°48'68223826.3
2015-May-22 01:32N 31°21' E 121°27'0 0.0
2015-May-22 01:31N 31°21' E 121°27'4108.7
2015-May-22 01:30N 31°24' E 121°31'70196.9
2015-May-22 01:08N 31°57' E 120°18'1134887.6
2015-May-22 01:07N 31°15' E 122°21'4682.7
2015-May-22 00:33N 31°21' E 121°27'7115016.7
2015-May-22 00:33N 31°56' E 120°15'711668.6
2015-May-22 00:30N 31°21' E 121°27'749.9
2015-May-22 00:22N 31°17' E 121°34'7 8.9
2015-May-21 23:33N 31°21' E 121°27'0 0.0
2015-May-21 23:29N 31°21' E 121°27'9830.1
2015-May-21 23:28N 31°13' E 121°30'9 9.4
2015-May-21 22:33N 31°21' E 121°27'0 2.7
2015-May-21 22:32N 31°21' E 121°27'2756.6
2015-May-21 22:04N 30°58' E 121°13'2750.3
2015-May-21 21:33N 31°21' E 121°27'191427.9
2015-May-21 21:32N 31°02' E 121°29'191293.6
2015-May-21 21:31N 31°21' E 121°27'3743686.1
2015-May-21 21:25N 37°27' E 123°04'4554471.4
2015-May-21 21:19N 29°55' E 122°03'3732601.3
2015-May-21 21:10N 36°07' E 122°29'2924398.2
2015-May-21 21:06N 31°15' E 122°21'4684.8
2015-May-21 20:34N 31°21' E 121°27'018.2
2015-May-21 20:32N 31°22' E 121°28'884093.7
2015-May-21 20:31N 29°57' E 121°56'3711065.3
2015-May-21 20:10N 36°08' E 122°29'861134.1
2015-May-21 20:05N 37°27' E 123°12'375702.3
2015-May-21 19:33N 31°21' E 121°27'3764941.0
2015-May-21 19:29N 37°27' E 123°15'3731076.9
2015-May-21 19:08N 31°24' E 121°31'2893684.0
2015-May-21 19:03N 36°09' E 122°29'289569.3
2015-May-21 18:33N 31°24' E 121°31'3752038.1
2015-May-21 18:22N 37°30' E 123°13'3798794.6
2015-May-21 18:19N 31°21' E 121°27'83416.2
2015-May-21 18:07N 30°01' E 121°50'85145.2
2015-May-21 17:32N 31°24' E 121°31'4238.7
2015-May-21 17:31N 31°21' E 121°27'83228.0
2015-May-21 17:09N 30°01' E 121°50'85142.1
2015-May-21 16:33N 31°24' E 121°31'4829.3
2015-May-21 16:33N 31°21' E 121°27'6642772.1
2015-May-21 16:19N 22°48' E 113°36'50204.1
2015-May-21 16:04N 22°12' E 114°14'6231222.8
2015-May-21 15:33N 30°01' E 121°50'853442.0
2015-May-21 15:32N 31°24' E 121°31'4167.3
2015-May-21 15:31N 31°21' E 121°27'66838815.9
2015-May-21 15:29N 22°14' E 114°18'6584513.3
2015-May-21 15:21N 31°09' E 121°27'1315.9
2015-May-21 14:33N 31°21' E 121°27'527420.4
2015-May-21 14:32N 32°02' E 120°50'511884.7
2015-May-21 14:31N 31°24' E 121°31'43680.1
2015-May-21 14:27N 31°15' E 122°21'4550.9
2015-May-21 13:33N 31°26' E 121°29'51521.0
2015-May-21 13:33N 31°21' E 121°27'53919598.4
2015-May-21 13:32N 40°20' E 122°03'539526.5
2015-May-21 12:30N 31°21' E 121°27'93720.6
2015-May-21 12:30N 31°30' E 121°23'9 9.7
2015-May-21 11:33N 31°21' E 121°27'154425.6
2015-May-21 11:32N 31°34' E 121°18'366812.6
2015-May-21 11:05N 37°38' E 121°59'378712.1
2015-May-21 10:34N 31°21' E 121°27'68229229.9
2015-May-21 10:32N 22°18' E 113°45'68850566.5
2015-May-21 10:31N 31°39' E 121°13'2121.6
2015-May-21 09:33N 31°21' E 121°27'0 0.0
2015-May-21 08:33N 31°21' E 121°27'44509.8
2015-May-21 08:28N 31°56' E 121°60'4447.1
2015-May-21 07:31N 31°21' E 121°27'3384843.1
2015-May-21 07:27N 36°55' E 122°29'29475567.8
2015-May-21 07:27N 32°03' E 121°49'4549.5
2015-May-21 06:32N 31°22' E 121°28'84996.3
2015-May-21 06:27N 29°59' E 121°47'6313414.1
2015-May-21 06:16N 22°16' E 113°49'682903.8
2015-May-21 05:30N 31°22' E 121°28'381390.9
2015-May-21 04:32N 37°42' E 121°51'38168531.9
2015-May-21 04:32N 31°22' E 121°28'0 0.0
2015-May-21 03:34N 31°22' E 121°28'352177.9
2015-May-21 03:33N 31°47' E 120°59'68722066.5
2015-May-21 03:31N 22°16' E 113°49'682706.3
2015-May-21 02:33N 31°22' E 121°28'66321107.0
2015-May-21 02:31N 22°53' E 113°30'66610340.1
2015-May-21 02:27N 31°51' E 120°53'4244.4
2015-May-21 01:30N 31°22' E 121°30'68212661.3
2015-May-21 01:27N 22°18' E 113°49'48437.0
2015-May-21 01:20N 22°54' E 113°15'675847.9
2015-May-21 00:32N 31°25' E 121°31'53139.4
2015-May-21 00:09N 32°00' E 120°44'67111.3
2015-May-20 23:33N 30°57' E 121°11'4 3.8
2015-May-20 22:32N 30°60' E 121°08'303800.9
2015-May-20 22:09N 26°08' E 119°34'305497.1
2015-May-20 21:32N 31°02' E 121°04'3051626.4
2015-May-20 21:21N 26°08' E 119°34'0 0.0
2015-May-20 20:33N 26°08' E 119°34'7014065.0
2015-May-20 20:22N 37°37' E 122°05'91218557.3
2015-May-20 20:20N 23°07' E 116°45'237304.0
2015-May-20 19:33N 26°08' E 119°34'23059218.2
2015-May-20 19:33N 23°12' E 116°50'1842660.7
2015-May-20 19:28N 23°02' E 113°31'9824096.9
2015-May-20 19:14N 37°38' E 122°06'9821277.3
2015-May-20 18:28N 23°02' E 113°31'3793195.9
2015-May-20 18:21N 26°08' E 119°34'379422.1
2015-May-20 17:27N 23°02' E 113°31'3793728.5
2015-May-20 17:21N 26°08' E 119°34'379395.3
2015-May-20 16:23N 23°02' E 113°31'0 0.0
2015-May-20 15:32N 23°02' E 113°31'715.4
2015-May-20 15:04N 22°56' E 113°36'3 5.0
2015-May-20 14:32N 22°54' E 113°35'954.1
2015-May-20 14:22N 23°02' E 113°31'6588394.6
2015-May-20 14:18N 31°47' E 120°56'658800.6
2015-May-20 13:28N 23°02' E 113°31'98911640.1
2015-May-20 13:23N 37°36' E 122°28'396471.7
2015-May-20 12:33N 31°02' E 121°29'64210508.0
2015-May-20 12:29N 23°02' E 113°31'921.9
2015-May-20 12:06N 22°55' E 113°25'815.7
2015-May-20 11:33N 23°01' E 113°31'949262782.8
2015-May-20 11:33N 36°43' E 122°39'3355615.3
2015-May-20 11:29N 31°10' E 121°52'50239249.2
2015-May-20 11:29N 23°42' E 117°36'230249.9
2015-May-20 10:33N 22°55' E 113°30'91365.1
2015-May-20 10:33N 23°04' E 113°29'95030542.9
2015-May-20 10:31N 36°50' E 122°33'33416689.1
2015-May-20 10:30N 31°18' E 121°45'5007371.3
2015-May-20 10:26N 23°49' E 117°39'232167293.9
2015-May-20 10:26N 23°02' E 113°31'9823351.8
2015-May-20 10:08N 37°38' E 122°05'374644.9
2015-May-20 09:33N 31°25' E 121°48'32974129.5
2015-May-20 09:33N 36°53' E 122°29'817210176.1
2015-May-20 09:33N 23°53' E 117°45'23915653.5
2015-May-20 09:32N 23°04' E 113°30'97976632.9
2015-May-20 09:31N 37°38' E 122°01'97946381.5
2015-May-20 09:30N 23°04' E 113°29'3110.9
2015-May-20 09:28N 23°02' E 113°31'6292060.1
2015-May-20 09:10N 30°58' E 121°14'1422.7
2015-May-20 08:33N 31°03' E 121°29'641164912.6
2015-May-20 08:33N 23°04' E 113°30'1122192422.3
2015-May-20 08:33N 40°17' E 122°06'509107752.3
2015-May-20 08:32N 31°57' E 120°11'64115380.1
2015-May-20 08:30N 23°04' E 113°29'929.5
2015-May-20 08:11N 22°57' E 113°36'4572.6
2015-May-20 07:33N 22°13' E 113°48'1165465805.7
2015-May-20 07:33N 40°17' E 122°06'1122448985.4
2015-May-20 07:33N 23°04' E 113°30'64468239.9
2015-May-20 07:32N 31°58' E 120°17'64515069.4
2015-May-20 07:30N 23°04' E 113°29'256911.7
2015-May-20 07:13N 24°04' E 118°01'256383.7
2015-May-20 06:33N 23°04' E 113°30'01631.7
2015-May-20 06:33N 23°04' E 113°29'112373474.6
2015-May-20 06:32N 40°17' E 122°06'116795513.6
2015-May-20 06:31N 22°10' E 113°48'2656192.8
2015-May-20 06:29N 24°09' E 118°06'25445692.7
2015-May-20 06:28N 22°26' E 113°53'97383413.6
2015-May-20 06:28N 36°51' E 122°28'3674374.7
2015-May-20 06:23N 30°49' E 123°46'5775675.9
2015-May-20 06:17N 39°05' E 117°45'9851366.4
2015-May-20 05:33N 23°04' E 113°30'112291837.9
2015-May-20 05:33N 40°17' E 122°06'2047913.0
2015-May-20 05:31N 36°53' E 122°26'95048882.7
2015-May-20 05:30N 23°04' E 113°29'571711.2
2015-May-20 05:28N 22°10' E 113°48'103513452.6
2015-May-20 05:23N 39°04' E 117°51'89041096.9
2015-May-20 05:22N 24°14' E 118°13'172874.8
2015-May-20 05:22N 24°28' E 118°04'4655556.7
2015-May-20 05:17N 31°57' E 120°19'65414095.1
2015-May-20 05:14N 22°54' E 113°28'66986058.6
2015-May-20 05:13N 32°01' E 120°44'661990.8
2015-May-20 04:33N 23°04' E 113°30'950136854.1
2015-May-20 04:33N 36°53' E 122°26'9501140571.0
2015-May-20 04:33N 23°04' E 113°29'65535186.7
2015-May-20 04:32N 31°22' E 121°28'66191563.6
2015-May-20 04:31N 22°55' E 113°30'486677.5
2015-May-20 04:31N 22°10' E 113°48'6983416.5
2015-May-20 04:19N 31°20' E 121°48'4609692.2
2015-May-20 04:16N 24°18' E 118°20'88728754.6
2015-May-20 04:14N 39°04' E 117°46'9851456.6
2015-May-20 03:33N 23°04' E 113°30'9503421351.7
2015-May-20 03:33N 36°53' E 122°26'121303.9
2015-May-20 03:33N 36°45' E 122°36'32632606.1
2015-May-20 03:32N 31°24' E 121°31'513115403.4
2015-May-20 03:32N 23°36' E 117°33'22512071.2
2015-May-20 03:31N 22°10' E 113°48'573602.5
2015-May-20 03:30N 23°04' E 113°29'334.3
2015-May-20 03:25N 23°02' E 113°31'2825000.8
2015-May-20 03:22N 24°22' E 118°26'4516620.1
2015-May-20 03:18N 31°16' E 121°46'692939.3
2015-May-20 02:34N 22°12' E 113°48'5415092.3
2015-May-20 02:33N 23°04' E 113°30'0 8.3
2015-May-20 02:33N 23°04' E 113°30'950244393.9
2015-May-20 02:33N 36°52' E 122°28'34317877.3
2015-May-20 02:32N 31°11' E 121°51'34451525.0
2015-May-20 02:31N 36°53' E 122°26'77513224.4
2015-May-20 02:28N 24°25' E 118°31'288317.7
2015-May-20 01:33N 23°04' E 113°30'950190075.1
2015-May-20 01:33N 36°53' E 122°26'9848641.5
2015-May-20 01:26N 22°18' E 113°48'99930232.6
2015-May-20 01:24N 37°42' E 121°09'963266614.5
2015-May-20 01:24N 23°04' E 113°30'9768025.9
2015-May-20 01:17N 37°36' E 121°59'9771351.2
2015-May-20 00:33N 23°04' E 113°29'951148915.5
2015-May-20 00:33N 36°54' E 122°27'49519.2
2015-May-20 00:27N 37°37' E 121°60'97817424.6
2015-May-20 00:24N 23°04' E 113°30'64510806.7
2015-May-20 00:20N 32°13' E 119°53'646817.4
2015-May-19 23:33N 23°04' E 113°29'0 2.3
2015-May-19 23:21N 23°04' E 113°30'6947221.2
2015-May-19 23:15N 32°10' E 121°33'32959142.8
2015-May-19 23:15N 37°38' E 122°02'51726.0
2015-May-19 23:11N 36°57' E 122°39'9591540.8
2015-May-19 22:33N 23°04' E 113°29'0119.4
2015-May-19 22:33N 23°04' E 113°30'95338977.4
2015-May-19 22:32N 36°52' E 122°33'28618082.9
2015-May-19 22:31N 32°10' E 121°33'332710.7
2015-May-19 22:03N 37°42' E 121°20'2 3.6
2015-May-19 21:33N 37°42' E 121°18'9671739883.3
2015-May-19 21:33N 23°04' E 113°30'0180.8
2015-May-19 21:33N 23°04' E 113°29'65619860.1
2015-May-19 21:31N 32°04' E 120°30'656680.5
2015-May-19 20:33N 23°04' E 113°30'015.1
2015-May-19 20:31N 23°04' E 113°29'3792108.9
2015-May-19 20:20N 26°08' E 119°34'693108540.9
2015-May-19 20:20N 37°23' E 122°40'9821252.6
2015-May-19 19:33N 23°04' E 113°30'0203.4
2015-May-19 19:33N 23°04' E 113°29'0 0.1
2015-May-19 18:34N 23°04' E 113°29'170.8
2015-May-19 18:33N 23°04' E 113°30'69414696.6
2015-May-19 18:30N 32°10' E 121°33'3776028.4
2015-May-19 18:26N 26°08' E 119°34'377409.4
2015-May-19 17:31N 32°08' E 121°41'69717060.5
2015-May-19 17:29N 23°04' E 113°29'1 3.9
2015-May-19 17:21N 23°04' E 113°30'374469.7
2015-May-19 16:33N 22°33' E 120°14'374122494.9
2015-May-19 16:33N 23°04' E 113°30'37937868.0
2015-May-19 16:32N 26°08' E 119°34'37936880.7
2015-May-19 16:32N 23°04' E 113°29'6973780.3
2015-May-19 16:21N 32°02' E 121°50'697876.5
2015-May-19 15:33N 23°04' E 113°30'69752269.9
2015-May-19 15:32N 31°57' E 121°56'697418285.1
2015-May-19 15:32N 23°04' E 113°29'3793990.0
2015-May-19 15:26N 26°08' E 119°34'70135067.8
2015-May-19 15:25N 37°37' E 122°06'9801129.5
2015-May-19 14:33N 23°04' E 113°29'1290.3
2015-May-19 14:25N 22°54' E 113°35'988253954.3
2015-May-19 14:25N 37°38' E 122°05'98014173.2
2015-May-19 14:21N 23°04' E 113°30'1 0.6
2015-May-19 13:33N 23°04' E 113°29'1 3.5
2015-May-19 13:24N 23°04' E 113°30'0 0.5
2015-May-19 12:33N 23°04' E 113°29'0 3.1
2015-May-19 12:24N 23°04' E 113°30'0 0.5
2015-May-19 11:33N 23°04' E 113°29'0203.4
2015-May-19 11:33N 23°04' E 113°30'98128468.9
2015-May-19 11:31N 37°38' E 122°05'3691049.3
2015-May-19 11:10N 31°29' E 122°20'6911089.5
2015-May-19 10:32N 23°04' E 113°29'0 0.9
2015-May-19 10:27N 23°04' E 113°29'94210660.9
2015-May-19 10:22N 36°42' E 122°28'7 8.5
2015-May-19 09:33N 36°49' E 122°28'948170595.2
2015-May-19 09:33N 23°04' E 113°29'0 2.0
2015-May-19 09:31N 23°04' E 113°29'0 1.9
2015-May-19 09:27N 23°04' E 113°29'95322576.9
2015-May-19 09:25N 36°52' E 122°34'2656903.7
2015-May-19 09:23N 39°05' E 117°44'4982873.1
2015-May-19 09:12N 31°17' E 121°10'641978.3
2015-May-19 08:33N 23°04' E 113°29'0 2.1
2015-May-19 08:31N 23°04' E 113°29'641461572.5
2015-May-19 08:31N 31°17' E 121°11'34522554.1
2015-May-19 08:30N 36°55' E 122°27'495192.9
2015-May-19 08:30N 37°38' E 121°57'38119041.7
2015-May-19 08:28N 31°18' E 122°21'68423898.6
2015-May-19 08:27N 23°04' E 113°29'98610111.4
2015-May-19 08:21N 39°04' E 117°50'50811792.2
2015-May-19 08:18N 31°08' E 121°27'645863.1
2015-May-19 07:34N 23°04' E 113°29'11311.4
2015-May-19 07:31N 22°56' E 113°36'114772.0
2015-May-19 07:31N 23°04' E 113°29'9538032.9
2015-May-19 07:24N 36°55' E 122°27'953127049.9
2015-May-19 07:24N 23°04' E 113°29'0 0.1
2015-May-19 06:34N 23°04' E 113°29'0 0.9
2015-May-19 06:30N 23°04' E 113°29'0 2.1
2015-May-19 06:27N 23°04' E 113°29'6583269.1
2015-May-19 06:15N 31°24' E 121°30'3399852.0
2015-May-19 06:13N 26°02' E 119°30'6624233.3
2015-May-19 06:03N 36°48' E 122°20'9431891.1
2015-May-19 05:33N 23°04' E 113°29'36832321.0
2015-May-19 05:33N 25°58' E 119°25'3688660.1
2015-May-19 05:30N 23°04' E 113°29'3775243.8
2015-May-19 05:26N 22°36' E 120°17'37712239.2
2015-May-19 05:24N 23°04' E 113°29'1081.8
2015-May-19 05:17N 22°57' E 113°36'9737584.0
2015-May-19 05:09N 37°43' E 121°21'9691624.1
2015-May-19 04:33N 23°04' E 113°29'37331956.8
2015-May-19 04:33N 22°39' E 120°13'2034903.0
2015-May-19 04:30N 25°57' E 119°23'3653461.9
2015-May-19 04:24N 23°04' E 113°29'11459.5
2015-May-19 04:22N 23°03' E 113°17'2411611.8
2015-May-19 04:13N 23°36' E 117°38'2303129.2
2015-May-19 04:09N 23°04' E 113°29'915.6
2015-May-19 03:33N 23°03' E 113°19'24013290.2
2015-May-19 03:32N 23°35' E 117°38'15045101.1
2015-May-19 03:32N 22°42' E 120°11'37158064.8
2015-May-19 03:32N 23°04' E 113°29'0 0.7
2015-May-19 03:27N 23°04' E 113°29'0 0.4
2015-May-19 03:12N 23°04' E 113°29'0 0.1
2015-May-19 02:33N 23°04' E 113°29'3655716.6
2015-May-19 02:30N 25°56' E 119°23'36715189.3
2015-May-19 02:28N 22°58' E 113°30'6264.6
2015-May-19 02:27N 23°04' E 113°29'23328911.3
2015-May-19 02:26N 23°35' E 117°40'228718.5
2015-May-19 02:07N 22°57' E 113°36'369656.1
2015-May-19 01:33N 22°37' E 120°16'376225456.4
2015-May-19 01:33N 23°04' E 113°29'10156.1
2015-May-19 01:30N 22°55' E 113°27'1032.9
2015-May-19 01:12N 23°04' E 113°29'36593941.2
2015-May-19 01:12N 25°56' E 119°23'71528931.3
2015-May-19 01:10N 37°43' E 121°33'9731590.2
2015-May-19 00:33N 23°04' E 113°29'646465327.3
2015-May-19 00:33N 31°10' E 121°28'3325363.8
2015-May-19 00:30N 25°56' E 119°23'70719432.4
2015-May-19 00:27N 37°23' E 122°40'98298231.7
2015-May-19 00:27N 23°04' E 113°29'9782652.6
2015-May-19 00:05N 37°38' E 121°58'9781817.1
2015-May-18 23:32N 23°04' E 113°29'10138.7
2015-May-18 23:28N 22°57' E 113°36'9744762.6
2015-May-18 23:16N 37°42' E 121°26'96949840.2
2015-May-18 23:15N 23°04' E 113°29'0 0.1
2015-May-18 22:33N 23°04' E 113°29'0 0.5
2015-May-18 22:26N 23°04' E 113°29'96714450.5
2015-May-18 22:22N 37°42' E 121°20'9671194.6
2015-May-18 21:33N 23°04' E 113°29'10163.5
2015-May-18 21:30N 22°57' E 113°36'1084.2
2015-May-18 21:23N 23°04' E 113°29'233719.4
2015-May-18 21:04N 23°36' E 117°40'8351672.1
2015-May-18 20:34N 36°53' E 122°28'95236840.4
2015-May-18 20:32N 23°04' E 113°29'0 0.7
2015-May-18 20:26N 23°04' E 113°29'0 0.1
2015-May-18 19:32N 23°04' E 113°29'94330876.8
2015-May-18 19:30N 36°43' E 122°30'82687452.2
2015-May-18 19:30N 23°36' E 117°40'2333505.1
2015-May-18 19:26N 23°04' E 113°29'9539690.6
2015-May-18 19:20N 36°55' E 122°27'9531224.2
2015-May-18 18:33N 23°04' E 113°29'23325378.2
2015-May-18 18:33N 23°36' E 117°40'8379503.6
2015-May-18 18:28N 36°55' E 122°27'95312518.8
2015-May-18 18:23N 23°04' E 113°29'0 0.1
2015-May-18 17:33N 23°04' E 113°29'66095059.4
2015-May-18 17:33N 31°11' E 121°50'6688684.8
2015-May-18 17:28N 22°54' E 113°28'10111.3
2015-May-18 17:23N 23°04' E 113°29'661799.8
2015-May-18 16:33N 31°16' E 121°45'66139650.5
2015-May-18 16:32N 23°04' E 113°29'98211299.0
2015-May-18 16:27N 37°23' E 122°41'98214034.9
2015-May-18 16:23N 23°04' E 113°29'63415632.3
2015-May-18 16:21N 30°20' E 122°04'634806.1
2015-May-18 15:33N 23°04' E 113°29'66682653.8
2015-May-18 15:33N 31°21' E 121°48'6665790.2
2015-May-18 15:26N 23°04' E 113°29'0 0.1
2015-May-18 14:33N 23°04' E 113°29'67077831.4
2015-May-18 14:33N 31°27' E 121°48'3233247.5
2015-May-18 14:27N 36°48' E 122°26'94614494.4
2015-May-18 14:23N 23°04' E 113°29'3712172.6
2015-May-18 14:13N 22°30' E 120°10'371561.3
2015-May-18 13:33N 23°04' E 113°29'6193853.3
2015-May-18 13:23N 30°02' E 121°59'6193928.6
2015-May-18 13:14N 23°04' E 113°29'619916.5
2015-May-18 12:33N 29°56' E 122°04'61982467.1
2015-May-18 12:33N 23°04' E 113°29'0 0.6
2015-May-18 12:26N 23°04' E 113°29'616700.3
2015-May-18 11:33N 29°49' E 122°07'61623830.3
2015-May-18 11:32N 23°04' E 113°29'117.8
2015-May-18 11:30N 23°04' E 113°30'111.1
2015-May-18 11:26N 23°04' E 113°29'0 0.1
2015-May-18 10:33N 23°04' E 113°29'61418407.9
2015-May-18 10:31N 29°47' E 122°06'6146818.5
2015-May-18 10:26N 23°04' E 113°29'3652399.5
2015-May-18 10:17N 25°56' E 119°23'71462719.3
2015-May-18 10:16N 37°38' E 122°03'9801372.2
2015-May-18 09:33N 23°04' E 113°29'6147148.7
2015-May-18 09:28N 29°47' E 122°06'61416736.2
2015-May-18 09:26N 23°04' E 113°29'94123516.2
2015-May-18 09:24N 36°41' E 122°26'6645884.2
2015-May-18 09:17N 25°56' E 119°23'36510103.7
2015-May-18 09:15N 23°04' E 113°30'48254.4
2015-May-18 09:03N 22°18' E 113°45'9821979.8
2015-May-18 08:34N 36°47' E 122°30'98165417.2
2015-May-18 08:33N 22°17' E 113°48'504851.5
2015-May-18 08:32N 23°04' E 113°29'1 7.4
2015-May-18 08:27N 23°04' E 113°30'110.6
2015-May-18 08:23N 23°04' E 113°29'365109580.3
2015-May-18 08:23N 25°56' E 119°23'2702434.9
2015-May-18 08:16N 29°46' E 122°04'428603.0
2015-May-18 07:33N 36°54' E 122°27'951114160.6
2015-May-18 07:33N 23°04' E 113°29'64249159.5
2015-May-18 07:32N 31°03' E 121°28'64215000.0
2015-May-18 07:30N 23°04' E 113°30'36523881.3
2015-May-18 07:29N 25°56' E 119°23'3657921.5
2015-May-18 07:26N 23°04' E 113°29'6119367.4
2015-May-18 07:22N 29°46' E 122°04'148735.6
2015-May-18 07:10N 31°59' E 120°50'34215592.1
2015-May-18 07:09N 37°38' E 121°48'9741651.8
2015-May-18 06:33N 23°04' E 113°29'644178205.5
2015-May-18 06:33N 31°07' E 121°28'872600.3
2015-May-18 06:31N 29°46' E 122°04'42844042.8
2015-May-18 06:30N 36°54' E 122°26'77729447.2
2015-May-18 06:29N 24°30' E 118°04'11231111.8
2015-May-18 06:29N 25°56' E 119°23'67856747.8
2015-May-18 06:28N 36°55' E 122°29'95441365.7
2015-May-18 06:27N 23°04' E 113°30'160.7
2015-May-18 06:26N 23°04' E 113°29'647738.7
2015-May-18 05:33N 31°11' E 121°28'34943270.9
2015-May-18 05:33N 36°55' E 122°29'95490350.8
2015-May-18 05:32N 23°04' E 113°29'5118401.6
2015-May-18 05:32N 22°16' E 113°49'1029127703.7
2015-May-18 05:32N 39°05' E 117°45'59867314.8
2015-May-18 05:31N 29°46' E 122°04'26934619.0
2015-May-18 05:31N 25°57' E 119°23'37114376.2
2015-May-18 05:29N 22°54' E 113°28'2351454.8
2015-May-18 05:19N 23°36' E 117°40'2322891.0
2015-May-18 05:15N 23°04' E 113°30'166.9
2015-May-18 05:14N 23°04' E 113°29'650962.0
2015-May-18 04:33N 31°14' E 121°30'503603491.2
2015-May-18 04:33N 39°04' E 117°50'9851773554.8
2015-May-18 04:33N 23°04' E 113°29'513172.5
2015-May-18 04:32N 22°16' E 113°49'36016021.5
2015-May-18 04:31N 22°33' E 120°18'37816189.2
2015-May-18 04:30N 23°04' E 113°30'954286113.0
2015-May-18 04:29N 36°55' E 122°29'95416587.0
2015-May-18 04:26N 23°04' E 113°29'1254.2
2015-May-18 04:26N 23°04' E 113°30'6703828.6
2015-May-18 04:15N 31°27' E 121°47'1723.7
2015-May-18 03:33N 31°16' E 121°33'146210.6
2015-May-18 03:33N 31°23' E 121°47'667133375.6
2015-May-18 03:33N 23°04' E 113°29'512665.0
2015-May-18 03:32N 22°16' E 113°49'102941141.5
2015-May-18 03:30N 39°04' E 117°51'25415491.7
2015-May-18 03:29N 36°55' E 122°29'43122799.1
2015-May-18 03:28N 29°45' E 122°04'4466769.0
2015-May-18 03:24N 22°30' E 120°18'37810889.1
2015-May-18 03:22N 23°04' E 113°30'1 4.7
2015-May-18 03:11N 23°03' E 113°30'913.6
2015-May-18 02:33N 23°02' E 113°21'828667.4
2015-May-18 02:33N 23°04' E 113°29'65760622.4
2015-May-18 02:33N 31°20' E 121°33'50045029.6
2015-May-18 02:32N 39°05' E 117°46'1029336639.5
2015-May-18 02:32N 22°16' E 113°49'68875087.5
2015-May-18 02:31N 31°18' E 121°45'3407319.3
2015-May-18 02:28N 36°55' E 122°29'32512056.5
2015-May-18 02:27N 31°36' E 121°18'66043182.3
2015-May-18 02:26N 23°04' E 113°29'1253.7
2015-May-18 02:26N 23°04' E 113°30'0 3.4
2015-May-18 02:22N 23°04' E 113°30'1 3.8
2015-May-18 02:10N 23°04' E 113°29'6571068.0
2015-May-18 01:33N 31°22' E 121°30'65776240.6
2015-May-18 01:33N 23°04' E 113°29'66132143.5
2015-May-18 01:32N 31°10' E 121°52'6641194528.2
2015-May-18 01:32N 22°58' E 113°32'66121434.2
2015-May-18 01:30N 31°32' E 121°19'68514677.1
2015-May-18 01:27N 22°18' E 113°48'106676724.0
2015-May-18 01:26N 38°44' E 121°37'1163160.5
2015-May-18 01:24N 36°55' E 122°29'9546838.5
2015-May-18 01:16N 23°04' E 113°29'120.0
2015-May-18 01:14N 23°04' E 113°30'1 0.8
2015-May-18 00:33N 23°04' E 113°29'65967762.2
2015-May-18 00:33N 31°25' E 121°31'331397046.3
2015-May-18 00:33N 36°52' E 122°32'1215026.5
2015-May-18 00:31N 38°45' E 121°34'1028108891.1
2015-May-18 00:31N 23°04' E 113°29'1 7.6
2015-May-18 00:26N 23°04' E 113°30'6565874.1
2015-May-18 00:19N 31°21' E 121°31'656859.9
2015-May-17 23:33N 23°04' E 113°29'658148148.7
2015-May-17 23:33N 31°29' E 121°25'84609.0
2015-May-17 23:33N 31°23' E 121°30'3348171.5
2015-May-17 23:30N 36°52' E 122°39'95520110.2
2015-May-17 23:28N 23°04' E 113°29'0 2.8
2015-May-17 23:17N 23°04' E 113°30'9771351.0
2015-May-17 22:33N 36°46' E 123°39'333239949.0
2015-May-17 22:33N 31°34' E 121°19'659118555.1
2015-May-17 22:33N 23°04' E 113°29'609199320.5
2015-May-17 22:33N 29°59' E 121°47'6099247.3
2015-May-17 22:29N 23°04' E 113°30'956382266.4
2015-May-17 22:29N 36°51' E 122°43'9564394.7
2015-May-17 22:16N 23°04' E 113°29'0 0.1
2015-May-17 21:33N 23°04' E 113°29'659237384.5
2015-May-17 21:33N 31°39' E 121°13'31815072.8
2015-May-17 21:32N 36°49' E 122°41'95318653.4
2015-May-17 21:29N 23°04' E 113°30'1154.4
2015-May-17 21:16N 22°54' E 113°35'121228.9
2015-May-17 21:16N 23°04' E 113°29'0 0.1
2015-May-17 20:33N 23°04' E 113°29'441153.4
2015-May-17 20:31N 22°26' E 113°53'44159178.7
2015-May-17 20:31N 23°04' E 113°29'65914745.4
2015-May-17 20:28N 31°44' E 121°06'65918396.9
2015-May-17 20:26N 23°04' E 113°30'1 2.3
2015-May-17 20:12N 23°04' E 113°29'6581023.5
2015-May-17 19:33N 31°46' E 120°60'65898680.5
2015-May-17 19:33N 23°04' E 113°29'0 0.3
2015-May-17 19:19N 23°04' E 113°29'0 5.5
2015-May-17 19:16N 23°04' E 113°29'0 0.3
2015-May-17 18:33N 23°04' E 113°29'0 1.3
2015-May-17 18:28N 23°04' E 113°29'0 4.5
2015-May-17 18:25N 23°04' E 113°29'6122319.3
2015-May-17 18:09N 30°01' E 121°50'612997.3
2015-May-17 17:33N 23°04' E 113°29'61273436.7
2015-May-17 17:32N 30°01' E 121°50'61224482.5
2015-May-17 17:31N 23°04' E 113°29'0 4.5
2015-May-17 17:28N 23°04' E 113°29'0 0.3
2015-May-17 16:33N 23°04' E 113°29'0 2.5
2015-May-17 16:31N 23°04' E 113°29'95518103.0
2015-May-17 16:27N 36°31' E 123°19'95526254.6
2015-May-17 16:25N 23°04' E 113°29'6123618.2
2015-May-17 16:15N 30°01' E 121°50'612877.4
2015-May-17 15:33N 23°04' E 113°29'0 3.5
2015-May-17 15:31N 23°04' E 113°29'0 3.4
2015-May-17 15:28N 23°04' E 113°29'6129664.8
2015-May-17 15:24N 30°01' E 121°50'6155575.6
2015-May-17 15:18N 22°56' E 113°34'0 0.0
2015-May-17 14:33N 22°56' E 113°34'64069.0
2015-May-17 14:33N 22°54' E 113°28'103925.0
2015-May-17 14:33N 23°04' E 113°29'0 3.5
2015-May-17 14:28N 23°04' E 113°29'016.3
2015-May-17 14:28N 23°04' E 113°29'6115910.6
2015-May-17 14:21N 29°60' E 121°49'61563205.8
2015-May-17 14:21N 22°54' E 113°35'9833678.4
2015-May-17 14:05N 38°53' E 117°43'9741852.7
2015-May-17 13:33N 23°04' E 113°29'8787.4
2015-May-17 13:33N 22°56' E 113°30'62131471.8
2015-May-17 13:32N 29°58' E 121°58'13368583.3
2015-May-17 13:31N 31°58' E 120°51'66212749.6
2015-May-17 13:28N 23°04' E 113°29'0 1.3
2015-May-17 13:19N 23°04' E 113°29'97546170.7
2015-May-17 13:17N 36°41' E 123°42'38443.0
2015-May-17 13:12N 36°22' E 123°01'29312564.5
2015-May-17 13:11N 38°53' E 117°43'98132400.1
2015-May-17 13:09N 22°56' E 113°34'6221043.5
2015-May-17 12:33N 29°54' E 122°08'42048740.4
2015-May-17 12:33N 36°45' E 123°46'980882351.4
2015-May-17 12:33N 23°03' E 113°31'24314.5
2015-May-17 12:33N 23°04' E 113°29'9202.9
2015-May-17 12:30N 22°56' E 113°34'9126.4
2015-May-17 12:26N 23°04' E 113°30'1154.4
2015-May-17 12:25N 23°04' E 113°29'0 1.2
2015-May-17 12:15N 23°04' E 113°29'0 0.1
2015-May-17 11:33N 23°04' E 113°29'9187.2
2015-May-17 11:30N 22°56' E 113°34'9380.7
2015-May-17 11:29N 23°04' E 113°30'0 6.2
2015-May-17 11:24N 23°04' E 113°29'0 0.7
2015-May-17 11:04N 23°04' E 113°29'0 0.5
2015-May-17 10:33N 23°04' E 113°29'9660.3
2015-May-17 10:32N 22°56' E 113°34'987296024.5
2015-May-17 10:32N 37°38' E 122°05'98114901.4
2015-May-17 10:28N 23°04' E 113°29'0 8.0
2015-May-17 10:27N 23°04' E 113°29'9793268.7
2015-May-17 10:09N 36°45' E 123°44'34121522.3
2015-May-17 10:08N 31°23' E 121°30'65815077.4
2015-May-17 10:05N 23°02' E 113°31'3 5.8
2015-May-17 09:32N 23°04' E 113°29'012.0
2015-May-17 09:32N 23°04' E 113°29'0 1.9
2015-May-17 09:25N 23°04' E 113°29'341.5
2015-May-17 09:20N 23°02' E 113°31'45560.3
2015-May-17 09:16N 22°18' E 113°45'106534867.8
2015-May-17 09:14N 38°45' E 121°32'1561148.2
2015-May-17 09:06N 36°47' E 123°42'9791804.2
2015-May-17 08:33N 23°04' E 113°29'985186698.7
2015-May-17 08:33N 39°05' E 117°46'98835224.0
2015-May-17 08:31N 23°03' E 113°21'52551.9
2015-May-17 08:25N 22°17' E 113°47'101425703.0
2015-May-17 08:23N 37°38' E 121°56'97819771.6
2015-May-17 08:20N 23°04' E 113°29'0 3.4
2015-May-17 08:16N 23°04' E 113°29'6064121.9
2015-May-17 08:07N 29°39' E 122°01'60313737.5
2015-May-17 08:05N 39°04' E 117°46'9851875.9
2015-May-17 07:33N 23°04' E 113°29'0 6.4
2015-May-17 07:32N 23°04' E 113°29'61113755.4
2015-May-17 07:29N 29°46' E 122°04'6112299.9
2015-May-17 07:13N 23°04' E 113°29'98525161.7
2015-May-17 07:11N 39°04' E 117°50'99322764.7
2015-May-17 07:08N 22°56' E 113°34'4882.1
2015-May-17 06:33N 22°10' E 113°48'5741073.4
2015-May-17 06:33N 23°04' E 113°29'620371817.7
2015-May-17 06:33N 29°55' E 122°08'41226051.1
2015-May-17 06:32N 36°47' E 122°20'943226327.5
2015-May-17 06:32N 23°04' E 113°29'6614601.2
2015-May-17 06:23N 31°55' E 120°53'4563288.7
2015-May-17 06:15N 39°05' E 117°46'9855481.9
2015-May-17 06:04N 23°04' E 113°29'66029342.9
2015-May-17 06:03N 31°12' E 121°48'4 8.5
2015-May-17 05:33N 31°16' E 121°45'7437879.5
2015-May-17 05:33N 30°03' E 121°59'646155103.9
2015-May-17 05:33N 22°10' E 113°48'573937.8
2015-May-17 05:32N 23°04' E 113°29'98518870.5
2015-May-17 05:29N 39°05' E 117°44'98515695.0
2015-May-17 05:25N 23°04' E 113°29'97514995.5
2015-May-17 05:21N 36°43' E 123°39'9757088.5
2015-May-17 05:13N 23°04' E 113°29'1014.4
2015-May-17 04:32N 22°55' E 113°27'491456.2
2015-May-17 04:30N 22°10' E 113°48'572100.8
2015-May-17 04:28N 23°04' E 113°29'069.0
2015-May-17 04:28N 23°04' E 113°29'97324847.4
2015-May-17 04:26N 36°43' E 123°35'97352296.3
2015-May-17 04:25N 23°04' E 113°29'6644.9
2015-May-17 04:24N 22°58' E 113°30'318.9
2015-May-17 04:14N 23°01' E 113°31'6614401.3
2015-May-17 04:05N 31°44' E 121°07'6681281.6
2015-May-17 03:33N 22°54' E 113°29'98464396.3
2015-May-17 03:32N 36°46' E 123°35'33133076.3
2015-May-17 03:32N 31°27' E 121°48'345853.8
2015-May-17 03:32N 31°41' E 121°11'47421894.6
2015-May-17 03:30N 39°05' E 117°45'103549686.5
2015-May-17 03:29N 22°10' E 113°48'103510125.8
2015-May-17 03:23N 39°04' E 117°49'98549270.1
2015-May-17 03:22N 23°04' E 113°29'98562241.8
2015-May-17 03:21N 39°04' E 117°49'0 9.4
2015-May-17 03:18N 39°04' E 117°49'98540770.9
2015-May-17 03:16N 23°04' E 113°29'6115391.0
2015-May-17 03:09N 29°59' E 121°50'6116851.2
2015-May-17 03:04N 23°04' E 113°29'9851929.7
2015-May-17 02:33N 39°04' E 117°50'47852158.6
2015-May-17 02:33N 31°36' E 121°17'693192010.5
2015-May-17 02:33N 22°11' E 113°47'535316.0
2015-May-17 02:32N 23°02' E 113°31'9878543.2
2015-May-17 02:25N 39°04' E 117°49'5554606.8
2015-May-17 02:18N 30°31' E 122°09'64421088.0
2015-May-17 02:16N 23°04' E 113°29'94249140.0
2015-May-17 02:15N 36°29' E 122°52'94224395.7
2015-May-17 02:13N 23°04' E 113°29'0 1.3
2015-May-17 02:04N 23°04' E 113°29'6591279.1
2015-May-17 01:33N 31°32' E 121°23'66050554.2
2015-May-17 01:33N 23°02' E 113°31'342.3
2015-May-17 01:28N 23°04' E 113°29'034.5
2015-May-17 01:28N 23°04' E 113°29'98542742.6
2015-May-17 01:26N 39°05' E 117°46'55211820.0
2015-May-17 01:23N 30°38' E 122°13'65273336.0
2015-May-17 01:23N 23°04' E 113°29'5025540.4
2015-May-17 01:23N 22°18' E 113°48'975206528.1
2015-May-17 01:22N 36°30' E 122°52'94372197.5
2015-May-17 01:22N 23°04' E 113°29'911.4
2015-May-17 00:34N 22°55' E 113°30'666133226.9
2015-May-17 00:33N 31°29' E 121°27'607983.7
2015-May-17 00:33N 30°45' E 122°16'34511933.2
2015-May-17 00:31N 36°29' E 122°51'94116282.1
2015-May-17 00:28N 23°04' E 113°29'010.6
2015-May-17 00:25N 23°04' E 113°29'017.2
2015-May-17 00:25N 23°04' E 113°29'0 2.2
2015-May-17 00:22N 23°04' E 113°29'9381170.6
2015-May-16 23:33N 36°27' E 122°50'94853312.6
2015-May-16 23:32N 22°55' E 113°27'66817549.8
2015-May-16 23:30N 31°26' E 121°30'3043991.1
2015-May-16 23:26N 36°26' E 122°24'621268.9
2015-May-16 23:23N 36°42' E 123°38'97458436.9
2015-May-16 23:22N 23°04' E 113°29'0 1.5
2015-May-16 23:17N 23°04' E 113°29'63956118.8
2015-May-16 23:17N 32°03' E 119°57'63969726.2
2015-May-16 23:16N 23°04' E 113°29'0 6.6
2015-May-16 23:13N 23°04' E 113°29'66828955.4
2015-May-16 23:11N 30°57' E 122°18'406634.2
2015-May-16 22:33N 37°40' E 121°27'37917699.5
2015-May-16 22:32N 31°21' E 121°31'65618452.8
2015-May-16 22:29N 23°04' E 113°29'0 3.7
2015-May-16 22:25N 23°04' E 113°29'93637848.4
2015-May-16 22:23N 36°24' E 122°48'93640097.7
2015-May-16 22:22N 23°04' E 113°29'97814192.7
2015-May-16 22:18N 36°45' E 123°42'346468.1
2015-May-16 21:33N 31°16' E 121°33'5499834.5
2015-May-16 21:30N 40°24' E 122°07'1130176792.5
2015-May-16 21:29N 23°04' E 113°29'0 1.1
2015-May-16 21:23N 23°04' E 113°29'011.4
2015-May-16 21:22N 23°04' E 113°29'93321525.1
2015-May-16 21:19N 36°22' E 122°46'30869253.1
2015-May-16 21:19N 31°15' E 122°20'4355.1
2015-May-16 20:32N 31°12' E 121°30'64916217.8
2015-May-16 20:29N 23°04' E 113°29'0 2.0
2015-May-16 20:26N 23°04' E 113°29'9786591.4
2015-May-16 20:17N 36°45' E 123°43'3482944.1
2015-May-16 20:10N 30°58' E 123°19'707181822.8
2015-May-16 20:10N 23°04' E 113°29'6931115.7
2015-May-16 19:32N 31°33' E 122°19'6936284.1
2015-May-16 19:26N 23°04' E 113°29'012.9
2015-May-16 19:25N 23°04' E 113°29'7065249.4
2015-May-16 19:17N 30°56' E 123°19'70618819.4
2015-May-16 19:14N 23°04' E 113°29'697965.9
2015-May-16 18:31N 31°43' E 122°13'69724110.4
2015-May-16 18:29N 23°04' E 113°29'0 2.7
2015-May-16 18:27N 23°04' E 113°29'010.4
2015-May-16 18:26N 23°04' E 113°29'698780.3
2015-May-16 17:32N 31°51' E 122°06'69820111.8
2015-May-16 17:30N 23°04' E 113°29'0 1.9
2015-May-16 17:26N 23°04' E 113°29'102643984.2
2015-May-16 17:25N 38°44' E 121°29'15514651.3
2015-May-16 17:24N 36°21' E 122°45'15411291.2
2015-May-16 17:24N 38°43' E 121°30'102672429.7
2015-May-16 17:23N 23°04' E 113°29'698846.4
2015-May-16 16:33N 31°57' E 121°58'40947470.6
2015-May-16 16:33N 38°45' E 121°33'102922446.5
2015-May-16 16:30N 23°04' E 113°29'0 8.4
2015-May-16 16:29N 23°04' E 113°29'0 2.1
2015-May-16 16:26N 23°04' E 113°29'9812784.4
2015-May-16 16:05N 36°47' E 123°45'299573.3
2015-May-16 15:33N 32°03' E 121°49'404181839.1
2015-May-16 15:33N 38°47' E 121°38'1562044.6
2015-May-16 15:29N 36°47' E 123°44'98136398.3
2015-May-16 15:27N 23°04' E 113°29'6587430.5
2015-May-16 15:22N 31°24' E 121°30'6585499.2
2015-May-16 15:14N 23°04' E 113°29'696994.0
2015-May-16 14:32N 32°08' E 121°40'69686436.9
2015-May-16 14:32N 23°03' E 113°30'98117145.8
2015-May-16 14:29N 36°48' E 123°43'98137562.1
2015-May-16 14:27N 23°04' E 113°29'103022614.6
2015-May-16 14:24N 38°43' E 121°44'10304595.4
2015-May-16 14:11N 23°04' E 113°29'6651062.3
2015-May-16 13:33N 31°19' E 121°48'5448534.5
2015-May-16 13:33N 32°11' E 121°32'70219280.9
2015-May-16 13:31N 22°55' E 113°30'10554.0
2015-May-16 13:30N 23°04' E 113°29'103247622.0
2015-May-16 13:29N 38°42' E 121°49'1403838.3
2015-May-16 13:27N 36°25' E 122°23'92614876.5
2015-May-16 13:23N 23°04' E 113°29'6582469.0
2015-May-16 13:07N 31°24' E 121°30'6591131.4
2015-May-16 12:32N 23°03' E 113°30'264.6
2015-May-16 12:30N 23°04' E 113°29'661158664.0
2015-May-16 12:30N 31°15' E 121°47'6619958.2
2015-May-16 12:26N 23°04' E 113°29'43370.2
2015-May-16 12:19N 22°26' E 113°52'71414042.4
2015-May-16 12:16N 32°12' E 121°32'703954.2
2015-May-16 11:31N 22°53' E 113°31'11116.9
2015-May-16 11:26N 23°04' E 113°29'6955817.9
2015-May-16 11:19N 32°12' E 121°32'120499.6
2015-May-16 11:04N 30°50' E 123°16'361693.2
2015-May-16 10:33N 36°51' E 123°38'9933575452.7
2015-May-16 10:33N 22°54' E 113°21'13104.6
2015-May-16 10:26N 23°04' E 113°29'6959810.6
2015-May-16 10:22N 32°12' E 121°32'3281149.1
2015-May-16 10:04N 37°38' E 122°05'328636.9
2015-May-16 09:34N 32°12' E 121°32'32856208.7
2015-May-16 09:33N 37°38' E 122°05'105022235.0
2015-May-16 09:30N 21°55' E 113°13'70924.9
2015-May-16 09:26N 23°04' E 113°29'368101960.8
2015-May-16 09:26N 25°58' E 119°25'3681129.8
2015-May-16 09:06N 23°04' E 113°29'6391174.1
2015-May-16 08:33N 31°01' E 121°27'66523488.2
2015-May-16 08:32N 22°17' E 113°47'38113982.0
2015-May-16 08:30N 25°58' E 119°27'369664316.6
2015-May-16 08:30N 23°04' E 113°29'9785606.8
2015-May-16 08:20N 37°38' E 121°57'97810205.4
2015-May-16 08:14N 23°04' E 113°29'9686769.2
2015-May-16 08:05N 37°42' E 121°23'397735.6
2015-May-16 07:33N 31°05' E 121°28'4024342.2
2015-May-16 07:27N 37°46' E 121°23'972269224.2
2015-May-16 07:27N 23°04' E 113°29'0 2.4
2015-May-16 07:23N 23°04' E 113°29'3692054.0
2015-May-16 07:12N 25°58' E 119°27'329508.9
2015-May-16 06:33N 31°10' E 121°28'3296173.4
2015-May-16 06:30N 25°58' E 119°27'7158202.7
2015-May-16 06:25N 37°46' E 121°23'97229661.4
2015-May-16 06:23N 23°04' E 113°29'0 2.2
2015-May-16 06:18N 23°04' E 113°29'650870.5
2015-May-16 05:33N 31°14' E 121°30'6506309.2
2015-May-16 05:27N 23°04' E 113°29'113838.3
2015-May-16 05:27N 22°55' E 113°36'3687710.8
2015-May-16 05:24N 25°58' E 119°27'3691680.0
2015-May-16 05:11N 23°04' E 113°29'7109436.6
2015-May-16 05:06N 31°04' E 123°17'93161.9
2015-May-16 04:32N 31°24' E 121°30'65822790.3
2015-May-16 04:30N 23°04' E 113°29'369442907.3
2015-May-16 04:30N 25°58' E 119°27'379454576.4
2015-May-16 04:30N 23°03' E 113°18'19392.1
2015-May-16 04:27N 22°52' E 113°34'6632459.0
2015-May-16 04:11N 31°20' E 121°33'4445399.4
2015-May-16 04:06N 38°44' E 121°41'442797.2
2015-May-16 03:33N 31°22' E 121°29'65615432.2
2015-May-16 03:30N 23°04' E 113°29'369166091.6
2015-May-16 03:30N 25°58' E 119°27'34415484.2
2015-May-16 03:29N 31°24' E 121°30'6642374.9
2015-May-16 03:12N 23°02' E 113°22'943424451.0
2015-May-16 03:12N 36°36' E 122°31'9391456.6
2015-May-16 02:33N 23°06' E 113°24'3737135.0
2015-May-16 02:30N 25°58' E 119°27'3415903.7
2015-May-16 02:26N 31°22' E 121°28'6554690.2
2015-May-16 02:18N 23°04' E 113°29'6588877.7
2015-May-16 02:14N 31°24' E 121°30'43915662.7
2015-May-16 02:12N 38°44' E 121°51'103357224.6
2015-May-16 02:11N 23°04' E 113°29'11221809.6
2015-May-16 01:34N 40°17' E 122°06'50753693.7
2015-May-16 01:33N 31°57' E 120°19'64513273.9
2015-May-16 01:30N 23°04' E 113°29'36983056.0
2015-May-16 01:30N 25°58' E 119°27'3417223.4
2015-May-16 01:27N 31°22' E 121°28'6823070.8
2015-May-16 01:14N 22°17' E 113°47'501036.6
2015-May-16 01:11N 23°04' E 113°29'11221772.3
2015-May-16 00:33N 40°17' E 122°06'53611553.6
2015-May-16 00:30N 31°22' E 121°28'65726896.9
2015-May-16 00:28N 22°57' E 113°36'66527850.2
2015-May-16 00:27N 32°01' E 120°48'514623.1
2015-May-16 00:26N 31°24' E 121°30'3447840.1
2015-May-16 00:24N 25°58' E 119°27'36921787.0
2015-May-16 00:23N 23°04' E 113°29'0 1.3
2015-May-16 00:15N 23°04' E 113°29'11231594.8
2015-May-15 23:33N 40°17' E 122°06'5363427.1
2015-May-15 23:23N 31°22' E 121°28'65744659.3
2015-May-15 23:22N 22°57' E 113°36'10132.2
2015-May-15 23:18N 23°04' E 113°29'0 1.4
2015-May-15 23:11N 23°04' E 113°29'103067400.9
2015-May-15 23:10N 38°42' E 121°46'438666.9
2015-May-15 22:30N 31°23' E 121°30'6583177.2
2015-May-15 22:18N 23°04' E 113°29'0 2.4
2015-May-15 22:14N 23°04' E 113°29'659974.2
2015-May-15 21:33N 31°27' E 121°27'65926945.1
2015-May-15 21:32N 23°04' E 113°29'0 2.2
2015-May-15 21:26N 23°04' E 113°29'9581081.1
2015-May-15 20:33N 36°52' E 122°45'3275431.9
2015-May-15 20:29N 31°32' E 121°20'66111113.9
2015-May-15 20:25N 22°57' E 113°36'10222.6
2015-May-15 20:23N 23°04' E 113°29'0388.0
2015-May-15 20:23N 23°04' E 113°29'9531159.2
2015-May-15 19:33N 36°52' E 122°34'95333961.3
2015-May-15 19:32N 23°04' E 113°29'0 2.2
2015-May-15 19:26N 23°04' E 113°29'0 0.2
2015-May-15 18:32N 23°04' E 113°29'10133.3
2015-May-15 18:27N 22°57' E 113°37'1046.8
2015-May-15 18:14N 23°04' E 113°29'374558.1
2015-May-15 17:33N 22°32' E 120°13'454544735.7
2015-May-15 17:33N 29°55' E 122°05'61822468.0
2015-May-15 17:32N 22°57' E 113°37'10103.5
2015-May-15 17:26N 23°04' E 113°29'0 3.5
2015-May-15 17:23N 23°04' E 113°29'1656.8
2015-May-15 17:05N 22°54' E 113°15'1935.1
2015-May-15 16:33N 22°55' E 113°36'61043.8
2015-May-15 16:32N 22°53' E 113°30'111137.0
2015-May-15 16:32N 23°04' E 113°29'61122011.7
2015-May-15 16:30N 29°57' E 121°53'6118564.7
2015-May-15 16:26N 23°04' E 113°29'645735.7
2015-May-15 15:33N 31°08' E 121°27'65329000.4
2015-May-15 15:32N 22°54' E 113°30'11106.5
2015-May-15 15:26N 23°04' E 113°29'0 2.1
2015-May-15 15:20N 23°04' E 113°29'65821547.2
2015-May-15 15:18N 31°24' E 121°30'1926.3
2015-May-15 14:33N 31°05' E 121°28'6514972.8
2015-May-15 14:26N 22°54' E 113°29'66622212.0
2015-May-15 14:24N 31°24' E 121°30'65835911.8
2015-May-15 14:23N 23°04' E 113°29'0318.1
2015-May-15 14:23N 23°04' E 113°29'1497.6
2015-May-15 14:14N 22°53' E 113°20'4 5.3
2015-May-15 13:33N 22°50' E 113°19'17869.8
2015-May-15 13:32N 23°04' E 113°29'7218.1
2015-May-15 13:30N 22°57' E 113°30'764.8
2015-May-15 13:23N 23°04' E 113°29'65820610.3
2015-May-15 13:21N 31°24' E 121°30'658804.0
2015-May-15 12:32N 23°04' E 113°29'26911.5
2015-May-15 12:32N 23°03' E 113°30'65930019.2
2015-May-15 12:30N 31°24' E 121°30'49350658.1
2015-May-15 12:30N 23°38' E 118°33'2814181.9
2015-May-15 12:26N 23°04' E 113°29'369397.6
2015-May-15 11:30N 25°58' E 119°27'368331553.2
2015-May-15 11:30N 23°04' E 113°30'2825392.5
2015-May-15 11:27N 23°36' E 118°34'28214944.6
2015-May-15 11:26N 23°04' E 113°29'0 2.2
2015-May-15 11:20N 23°04' E 113°29'1 0.7
2015-May-15 10:30N 23°04' E 113°30'110.7
2015-May-15 10:26N 23°04' E 113°29'0 2.2
2015-May-15 10:20N 23°04' E 113°29'2831429.2
2015-May-15 10:08N 23°35' E 118°35'518814.1
2015-May-15 09:30N 31°59' E 120°48'66237228.9
2015-May-15 09:29N 23°04' E 113°29'0 3.8
2015-May-15 09:26N 23°04' E 113°29'1 5.8
2015-May-15 09:18N 23°04' E 113°30'640857.8
2015-May-15 08:33N 31°56' E 120°12'67236102.7
2015-May-15 08:32N 22°17' E 113°48'5018027.6
2015-May-15 08:32N 23°04' E 113°29'0 1.1
2015-May-15 08:23N 23°04' E 113°29'96082280.0
2015-May-15 08:22N 36°44' E 123°06'3067871.4
2015-May-15 08:20N 31°59' E 120°48'34544421.1
2015-May-15 08:19N 37°39' E 122°06'3514193.8
2015-May-15 08:19N 37°44' E 121°21'97053703.9
2015-May-15 08:18N 23°04' E 113°30'5371.6
2015-May-15 07:33N 22°13' E 113°48'102019958.2
2015-May-15 07:30N 37°39' E 122°03'981441292.1
2015-May-15 07:30N 23°04' E 113°30'9607124.2
2015-May-15 07:22N 36°44' E 123°06'3061954.0
2015-May-15 07:13N 31°59' E 120°48'6628570.7
2015-May-15 07:08N 23°04' E 113°29'5799.3
2015-May-15 06:34N 22°10' E 113°48'57968.4
2015-May-15 06:30N 23°04' E 113°30'110.5
2015-May-15 06:26N 23°04' E 113°29'0 2.2
2015-May-15 06:20N 23°04' E 113°29'97611834.3
2015-May-15 06:15N 37°48' E 121°29'1011196.1
2015-May-15 06:10N 36°44' E 123°06'3062970.2
2015-May-15 06:04N 31°59' E 120°48'71134.4
2015-May-15 05:32N 31°12' E 121°49'66018417.8
2015-May-15 05:30N 23°04' E 113°30'574540.5
2015-May-15 05:29N 22°10' E 113°48'5718654.3
2015-May-15 05:29N 23°04' E 113°29'0 3.6
2015-May-15 05:26N 23°04' E 113°29'6638312.8
2015-May-15 05:21N 31°59' E 120°51'311.3
2015-May-15 05:06N 31°59' E 120°48'6621174.5
2015-May-15 04:33N 23°04' E 113°29'0 4.3
2015-May-15 04:29N 23°04' E 113°29'576416.3
2015-May-15 04:28N 22°10' E 113°48'57585.2
2015-May-15 04:23N 23°04' E 113°29'9767823.7
2015-May-15 04:15N 37°48' E 121°29'384548.7
2015-May-15 03:33N 31°24' E 121°48'622879.9
2015-May-15 03:32N 31°59' E 120°48'1449331.9
2015-May-15 03:32N 31°48' E 120°56'4645658.4
2015-May-15 03:27N 39°05' E 117°46'98513747.1
2015-May-15 03:23N 23°04' E 113°29'0 2.0
2015-May-15 03:17N 23°04' E 113°29'57769.1
2015-May-15 03:12N 22°10' E 113°48'5712117.6
2015-May-15 03:12N 23°04' E 113°29'0 0.1
2015-May-15 02:33N 23°04' E 113°29'566666.6
2015-May-15 02:33N 22°12' E 113°47'555536.7
2015-May-15 02:32N 23°04' E 113°29'97610975.4
2015-May-15 02:27N 37°38' E 121°51'97613936.0
2015-May-15 02:23N 23°04' E 113°29'9853546793.6
2015-May-15 02:23N 39°04' E 117°51'187226.4
2015-May-15 01:33N 37°50' E 121°29'97851757.5
2015-May-15 01:32N 23°04' E 113°29'65669430.0
2015-May-15 01:31N 31°46' E 120°56'4657974.8
2015-May-15 01:28N 39°05' E 117°46'98526077.8
2015-May-15 01:26N 23°04' E 113°29'0 1.0
2015-May-15 01:24N 23°04' E 113°29'6602402.3
2015-May-15 01:08N 31°39' E 121°14'6601107.2
2015-May-15 00:32N 23°04' E 113°29'0 1.7
2015-May-15 00:26N 23°04' E 113°29'0 1.1
2015-May-15 00:24N 23°04' E 113°29'6583828.9
2015-May-15 00:14N 31°24' E 121°30'14168.9
2015-May-15 00:09N 31°35' E 121°19'3 5.9
2015-May-14 23:33N 31°32' E 121°22'3254816.6
2015-May-14 23:29N 36°53' E 122°26'3328129.1
2015-May-14 23:27N 31°24' E 121°30'65835912.1
2015-May-14 23:26N 23°04' E 113°29'0 0.9
2015-May-14 23:21N 23°04' E 113°29'0 8.2
2015-May-14 23:20N 23°04' E 113°29'662844.4
2015-May-14 22:33N 31°59' E 120°48'452392.4
2015-May-14 22:32N 31°29' E 121°27'3286896.7
2015-May-14 22:29N 36°53' E 122°26'95016855.9
2015-May-14 22:26N 23°04' E 113°29'0 0.8
2015-May-14 22:08N 23°04' E 113°29'6591142.8
2015-May-14 21:33N 31°26' E 121°30'65928597.4
2015-May-14 21:32N 23°04' E 113°29'95118905.6
2015-May-14 21:29N 36°53' E 122°26'3153043.6
2015-May-14 21:23N 32°04' E 119°54'6546277.6
2015-May-14 21:16N 22°54' E 113°15'9661218.5
2015-May-14 20:29N 36°53' E 122°26'3051287.0
2015-May-14 20:15N 31°59' E 120°48'66234532.9
2015-May-14 20:14N 23°04' E 113°29'6609062.5
2015-May-14 20:09N 31°25' E 121°31'6609311.8
2015-May-14 20:05N 23°04' E 113°29'6601232.2
2015-May-14 19:33N 31°25' E 121°31'66051619.7
2015-May-14 19:32N 23°04' E 113°29'63826696.1
2015-May-14 19:31N 31°59' E 120°01'31810997.9
2015-May-14 19:29N 36°53' E 122°26'95017108.4
2015-May-14 19:26N 23°04' E 113°29'9776879.7
2015-May-14 19:17N 38°54' E 117°52'248334.9
2015-May-14 18:33N 36°53' E 122°26'24822867.4
2015-May-14 18:32N 38°54' E 117°52'48428573.8
2015-May-14 18:31N 31°24' E 121°31'7815587.3
2015-May-14 18:31N 31°57' E 120°08'64021929.0
2015-May-14 18:29N 23°04' E 113°29'0 0.7
2015-May-14 18:14N 23°04' E 113°29'6604017.5
2015-May-14 18:04N 31°25' E 121°31'73141.3
2015-May-14 17:33N 31°57' E 120°14'31694780.2
2015-May-14 17:33N 36°53' E 122°26'95183461.1
2015-May-14 17:32N 23°04' E 113°29'66241084.7
2015-May-14 17:31N 31°59' E 120°48'6622280.1
2015-May-14 17:14N 23°04' E 113°29'9521394.0
2015-May-14 16:33N 36°52' E 122°30'41765278.9
2015-May-14 16:32N 29°56' E 122°00'616130381.3
2015-May-14 16:32N 23°04' E 113°29'648777430.0
2015-May-14 16:32N 31°59' E 120°21'788824.3
2015-May-14 16:31N 30°59' E 121°19'6336646.6
2015-May-14 16:26N 23°04' E 113°29'1249.7
2015-May-14 16:11N 23°03' E 113°16'66720686.7
2015-May-14 16:09N 31°24' E 121°31'88143.7
2015-May-14 15:33N 29°58' E 121°51'61731732.6
2015-May-14 15:31N 23°02' E 113°21'26804.8
2015-May-14 15:31N 23°03' E 113°19'938.9
2015-May-14 15:17N 23°04' E 113°29'0 3.1
2015-May-14 15:14N 23°04' E 113°29'2 3.4
2015-May-14 14:33N 23°05' E 113°27'96761067.3
2015-May-14 14:32N 37°04' E 122°41'966128842.0
2015-May-14 14:32N 23°04' E 113°29'65811910.4
2015-May-14 14:29N 31°24' E 121°30'20434.8
2015-May-14 14:26N 31°05' E 121°28'642128483.9
2015-May-14 14:26N 23°04' E 113°29'1 0.7
2015-May-14 13:33N 23°04' E 113°29'9743506546.0
2015-May-14 13:33N 37°12' E 122°44'3681325612.7
2015-May-14 13:33N 31°09' E 121°27'6458834.9
2015-May-14 13:29N 23°04' E 113°29'6587087.7
2015-May-14 13:23N 32°00' E 120°39'574433.9
2015-May-14 13:23N 31°24' E 121°30'6584422.0
2015-May-14 13:14N 23°04' E 113°29'1 1.2
2015-May-14 12:33N 23°04' E 113°30'660594011.5
2015-May-14 12:33N 32°01' E 120°43'665934.4
2015-May-14 12:33N 31°25' E 121°48'66961720.6
2015-May-14 12:32N 23°04' E 113°29'65012721.4
2015-May-14 12:29N 31°14' E 121°30'102096.0
2015-May-14 12:29N 31°24' E 121°30'2 2.1
2015-May-14 11:33N 31°23' E 121°30'152675.3
2015-May-14 11:33N 31°18' E 121°46'663596516.8
2015-May-14 11:33N 23°04' E 113°30'645773561.3
2015-May-14 11:33N 31°09' E 121°27'611514.8
2015-May-14 11:31N 31°59' E 120°48'277.4
2015-May-14 11:29N 31°59' E 120°45'59106514.1
2015-May-14 11:29N 31°17' E 121°34'38157165.1
2015-May-14 11:28N 37°33' E 122°44'99222189.0
2015-May-14 11:26N 23°04' E 113°29'6586547.4
2015-May-14 11:20N 31°24' E 121°30'1621.0
2015-May-14 10:33N 31°08' E 121°27'194278.9
2015-May-14 10:33N 31°13' E 121°49'6612378222.7
2015-May-14 10:33N 23°04' E 113°30'131.9
2015-May-14 10:32N 23°04' E 113°29'65627474.3
2015-May-14 10:30N 31°21' E 121°32'37942598.0
2015-May-14 10:30N 37°38' E 122°03'98013316.0
2015-May-14 10:26N 23°04' E 113°29'66013203.5
2015-May-14 10:23N 31°59' E 120°45'5263.1
2015-May-14 09:33N 31°23' E 121°30'657107535.1
2015-May-14 09:32N 23°04' E 113°30'186.3
2015-May-14 09:32N 23°04' E 113°29'0 1.4
2015-May-14 09:23N 23°04' E 113°29'1 1.0
2015-May-14 08:33N 23°04' E 113°30'641121446.3
2015-May-14 08:33N 31°57' E 120°12'7215309.6
2015-May-14 08:33N 31°26' E 121°29'65949398.9
2015-May-14 08:32N 23°04' E 113°29'0 1.0
2015-May-14 08:23N 23°04' E 113°29'6605200.5
2015-May-14 08:15N 31°59' E 120°45'2333.5
2015-May-14 07:33N 31°58' E 120°18'645464453.3
2015-May-14 07:33N 23°04' E 113°30'65941648.1
2015-May-14 07:32N 31°57' E 120°47'660296836.6
2015-May-14 07:32N 23°04' E 113°29'7448.7
2015-May-14 07:31N 23°02' E 113°21'6682765.4
2015-May-14 07:16N 31°57' E 120°52'6626693.6
2015-May-14 07:11N 23°04' E 113°29'969268406.0
2015-May-14 07:10N 37°44' E 121°21'9691571.0
2015-May-14 06:33N 23°04' E 113°30'124.5
2015-May-14 06:32N 23°04' E 113°29'97222427.3
2015-May-14 06:29N 37°44' E 121°26'3532565.6
2015-May-14 06:21N 31°53' E 120°49'6575236.4
2015-May-14 06:14N 23°04' E 113°29'1 1.1
2015-May-14 05:33N 23°04' E 113°30'1 9.1
2015-May-14 05:29N 23°04' E 113°29'0 2.9
2015-May-14 05:26N 23°04' E 113°29'6634983.0
2015-May-14 05:18N 32°00' E 120°49'697938.2
2015-May-14 04:33N 22°10' E 113°52'5811655.2
2015-May-14 04:33N 23°04' E 113°29'3781448.8
2015-May-14 04:17N 22°32' E 120°18'3786579.1
2015-May-14 04:14N 23°04' E 113°29'66110087.9
2015-May-14 04:10N 31°56' E 120°53'66125062.1
2015-May-14 04:08N 23°04' E 113°29'6631147.8
2015-May-14 03:33N 32°01' E 120°47'663596250.6
2015-May-14 03:33N 23°04' E 113°29'5089756.2
2015-May-14 03:33N 22°18' E 113°48'66885894.9
2015-May-14 03:33N 31°04' E 121°28'3969695.6
2015-May-14 03:30N 37°40' E 121°39'40122218.7
2015-May-14 03:29N 30°59' E 121°20'634103675.3
2015-May-14 03:29N 23°04' E 113°29'65914207.7
2015-May-14 03:26N 31°52' E 120°54'62494.2
2015-May-14 03:26N 31°46' E 120°56'65687423.4
2015-May-14 03:26N 23°04' E 113°29'95075975.6
2015-May-14 03:25N 36°45' E 122°39'342394.4
2015-May-14 02:33N 31°08' E 121°27'645773701.9
2015-May-14 02:33N 23°04' E 113°29'971183890.4
2015-May-14 02:32N 37°42' E 121°29'34249296.5
2015-May-14 02:32N 32°01' E 120°47'668343411.3
2015-May-14 02:32N 23°02' E 113°24'9513423179.1
2015-May-14 02:32N 36°46' E 122°32'8626244.0
2015-May-14 02:24N 22°31' E 120°18'96921810.2
2015-May-14 02:21N 38°38' E 121°43'103155378.2
2015-May-14 02:20N 23°04' E 113°16'6665192.0
2015-May-14 02:12N 31°24' E 121°30'251378.3
2015-May-14 02:11N 30°60' E 121°25'52628.5
2015-May-14 02:06N 31°47' E 121°00'6581213.5
2015-May-14 01:33N 23°04' E 113°29'64986507.8
2015-May-14 01:33N 31°12' E 121°30'3301187550.9
2015-May-14 01:33N 25°60' E 119°29'31934799.3
2015-May-14 01:32N 31°01' E 121°28'35819233.0
2015-May-14 01:31N 36°55' E 122°29'30620759.8
2015-May-14 01:30N 32°01' E 120°47'6635045.8
2015-May-14 01:23N 23°04' E 113°29'10252.6
2015-May-14 01:20N 22°57' E 113°37'66018707.5
2015-May-14 01:18N 31°24' E 121°30'3771355906.8
2015-May-14 01:18N 37°41' E 121°27'681.3
2015-May-14 01:13N 37°47' E 121°29'383577.9
2015-May-14 00:34N 31°24' E 121°30'1935066.7
2015-May-14 00:34N 31°05' E 121°28'64333051.9
2015-May-14 00:32N 23°04' E 113°29'65255867.2
2015-May-14 00:32N 31°15' E 121°31'602169.0
2015-May-14 00:30N 32°01' E 120°47'6638939.8
2015-May-14 00:26N 23°04' E 113°29'9549203.5
2015-May-14 00:19N 36°55' E 122°29'2893354.8
2015-May-14 00:14N 32°10' E 121°32'3308920.0
2015-May-14 00:12N 37°40' E 121°27'98310443.0
2015-May-14 00:06N 22°43' E 113°40'6561200.6
2015-May-13 23:34N 31°10' E 121°28'646232537.2
2015-May-13 23:33N 23°04' E 113°29'66356823.4
2015-May-13 23:33N 32°01' E 120°47'34715816.4
2015-May-13 23:31N 37°47' E 121°21'98613549.9
2015-May-13 23:27N 22°46' E 113°37'96635496.3
2015-May-13 23:25N 36°55' E 122°29'34024949.4
2015-May-13 23:25N 31°19' E 121°33'38040249.2
2015-May-13 23:24N 37°39' E 121°28'3304629.1
2015-May-13 23:20N 32°08' E 121°30'6914549.6
2015-May-13 23:11N 23°04' E 113°29'6585616.9
2015-May-13 23:04N 31°24' E 121°30'1122.8
2015-May-13 22:34N 31°13' E 121°30'650212690.7
2015-May-13 22:33N 23°04' E 113°29'663477293.8
2015-May-13 22:33N 32°01' E 120°47'544087.3
2015-May-13 22:32N 31°21' E 121°30'16238.8
2015-May-13 22:28N 31°34' E 121°20'32033830.9
2015-May-13 22:28N 36°49' E 122°25'94623661.3
2015-May-13 22:26N 23°04' E 113°29'95490338.2
2015-May-13 22:25N 36°55' E 122°29'69309.6
2015-May-13 22:12N 37°43' E 121°27'3547761.7
2015-May-13 22:09N 31°51' E 120°54'4269.8
2015-May-13 21:33N 31°24' E 121°31'659215584.6
2015-May-13 21:33N 23°04' E 113°29'106145459.2
2015-May-13 21:32N 39°54' E 119°49'1515422.0
2015-May-13 21:30N 37°44' E 121°27'38911582.9
2015-May-13 21:28N 31°15' E 121°32'3446870.9
2015-May-13 21:25N 36°55' E 122°29'95424005.8
2015-May-13 21:23N 23°04' E 113°29'59914481.6
2015-May-13 21:20N 29°28' E 122°02'599770.1
2015-May-13 20:33N 23°04' E 113°29'954156036.3
2015-May-13 20:33N 36°55' E 122°29'33299461.4
2015-May-13 20:33N 31°28' E 121°27'1182462.8
2015-May-13 20:30N 29°34' E 122°01'1062124.3
2015-May-13 20:27N 31°17' E 121°34'6552937.5
2015-May-13 20:14N 23°04' E 113°29'0 0.0
2015-May-13 19:33N 23°04' E 113°29'658157969.1
2015-May-13 19:33N 31°31' E 121°22'329197466.0
2015-May-13 19:33N 36°55' E 122°29'3381188.4
2015-May-13 19:16N 31°21' E 121°32'65716531.8
2015-May-13 19:14N 23°04' E 113°29'659985.6
2015-May-13 18:33N 31°35' E 121°18'171100.1
2015-May-13 18:32N 31°21' E 121°30'65681439.5
2015-May-13 18:32N 23°04' E 113°29'94956033.2
2015-May-13 18:31N 36°51' E 122°28'94910485.0
2015-May-13 18:26N 23°04' E 113°29'6455186.4
2015-May-13 18:18N 31°58' E 120°19'645865.3
2015-May-13 17:33N 23°04' E 113°29'642192566.0
2015-May-13 17:33N 31°56' E 120°15'30691800.6
2015-May-13 17:33N 36°42' E 122°26'309138903.6
2015-May-13 17:33N 31°39' E 121°13'1281243.4
2015-May-13 17:27N 29°39' E 122°03'60634091.6
2015-May-13 17:26N 23°04' E 113°29'0 0.0
2015-May-13 16:33N 23°04' E 113°29'606242443.7
2015-May-13 16:33N 29°39' E 122°03'1331103.9
2015-May-13 16:26N 31°43' E 121°07'659790986.6
2015-May-13 16:26N 23°04' E 113°29'63910360.2
2015-May-13 16:22N 31°56' E 120°08'41227.7
2015-May-13 16:11N 31°46' E 120°55'6551032.8
2015-May-13 15:33N 23°04' E 113°29'60670381.2
2015-May-13 15:32N 29°38' E 122°03'6065232.3
2015-May-13 15:26N 23°04' E 113°29'658757.2
2015-May-13 14:33N 31°32' E 121°20'658789976.5
2015-May-13 14:33N 23°04' E 113°29'606218177.4
2015-May-13 14:33N 29°38' E 122°03'6071927.8
2015-May-13 14:14N 22°56' E 113°36'1116.0
2015-May-13 13:33N 23°04' E 113°29'65927261.0
2015-May-13 13:32N 31°35' E 121°18'1071395.0
2015-May-13 13:27N 29°55' E 122°04'61821376.2
2015-May-13 13:26N 23°04' E 113°29'0 0.1
2015-May-13 12:33N 23°04' E 113°29'615553722.9
2015-May-13 12:33N 29°58' E 121°58'105377845.5
2015-May-13 12:33N 31°36' E 121°17'37221251.0
2015-May-13 12:32N 37°48' E 121°27'98157883.9
2015-May-13 12:31N 22°55' E 113°36'6481165978.6
2015-May-13 12:31N 31°08' E 121°27'6451695.6
2015-May-13 12:08N 23°04' E 113°29'0 0.3
2015-May-13 11:33N 23°04' E 113°29'659113045.5
2015-May-13 11:33N 31°38' E 121°15'663238653.1
2015-May-13 11:33N 23°03' E 113°25'61439501.5
2015-May-13 11:32N 29°58' E 121°51'47010315.0
2015-May-13 11:29N 37°48' E 121°27'3836105.0
2015-May-13 11:25N 31°24' E 121°30'38220.8
2015-May-13 11:15N 31°46' E 120°55'41710508.0
2015-May-13 11:13N 38°42' E 121°41'10281563.2
2015-May-13 10:33N 23°04' E 113°29'970129380.8
2015-May-13 10:33N 37°43' E 121°27'3781373.2
2015-May-13 10:16N 31°24' E 121°30'6593297.2
2015-May-13 10:04N 22°57' E 113°37'1120.6
2015-May-13 09:33N 23°04' E 113°29'71671.5
2015-May-13 09:33N 23°02' E 113°22'972152133.7
2015-May-13 09:33N 37°40' E 121°26'97718607.1
2015-May-13 09:30N 22°54' E 113°30'9725066.1
2015-May-13 09:18N 37°42' E 121°09'9631279.9
2015-May-13 08:33N 23°04' E 113°29'190.9
2015-May-13 08:33N 23°05' E 113°28'966115943.9
2015-May-13 08:32N 37°42' E 121°17'6315.5
2015-May-13 08:31N 37°40' E 121°25'97215210.5
2015-May-13 08:27N 23°02' E 113°23'103416476.0
2015-May-13 08:23N 38°40' E 121°50'4123964.8
2015-May-13 08:17N 31°51' E 120°53'6653290.0
2015-May-13 08:05N 23°04' E 113°16'9761839.9
2015-May-13 07:33N 37°43' E 121°26'349628925.3
2015-May-13 07:33N 31°55' E 120°52'455817.9
2015-May-13 07:33N 31°23' E 121°30'37750283.6
2015-May-13 07:32N 37°40' E 121°28'96823242.3
2015-May-13 07:30N 23°04' E 113°29'65645396.5
2015-May-13 07:29N 31°47' E 120°56'65131690.9
2015-May-13 07:27N 23°06' E 113°35'1098.2
2015-May-13 07:22N 23°04' E 113°25'9876469.4
2015-May-13 07:13N 39°05' E 117°46'194294.0
2015-May-13 06:33N 37°43' E 121°30'971582714.3
2015-May-13 06:33N 23°04' E 113°29'985147788.2
2015-May-13 06:33N 39°04' E 117°50'19027352.7
2015-May-13 06:32N 37°40' E 121°27'35538699.1
2015-May-13 06:32N 31°47' E 120°56'142463.0
2015-May-13 06:31N 31°60' E 120°49'6656108.0
2015-May-13 06:25N 23°04' E 113°25'6593369.5
2015-May-13 06:13N 31°22' E 121°30'656992.0
2015-May-13 05:33N 23°04' E 113°29'97383414.1
2015-May-13 05:33N 37°43' E 121°34'5102.5
2015-May-13 05:30N 37°41' E 121°28'1932344.9
2015-May-13 05:25N 39°04' E 117°46'318.5
2015-May-13 05:16N 39°04' E 117°50'  

Dump ship's entire track history